Darstellungsparameter: Aktuell verwendete Einstellungen:
Skalierung der Graphiken ... ?
xyx+y,   Skalierungsfaktor:      Skalierung: Modus: x, Faktor: 1
Darstellungszeitraum ... ?
Vom - - bis: - -   Zeitraum: 18.04.2020 - 24.04.2020
Min/Max/Avg-Anzeige ... ?
Zeige MMA aktuell
Zeige MMA Monat
Zeige MMA alles
Zeige --A aktuell
Zeige --A Monat
Zeige --A alles
Keine MMA-Anzeige
MMA:
Average (ber die Originaldaten)
MMA-Basis: 18.04.2020 - 24.04.2020
Quicknavigation für Darstellung... ?
Tage:      1T, 2T, 3T, 5T -1T -2T -3T -5T +1T +2T +3T +5T
Wochen: 1W, 2W, 3W -1W -2W -3W +1W +2W +3W
Monate: 1M, 3M, 6M -1M -3M -6M +1M +3M +6M
Jahre:    1J, 3J, 5J, 10J -1J -3J -5J -10J +1J +3J +5J +10J
Nutze für die Darstellung ... ?
Originaldaten oder Mittelwerte auf ...
Stundenbasis Tagesbasis Wochenbasis
Monatsbasis Jahresbasis      Datenbasis: Original-Daten
Darstellen als:
Statistik (Auto) Statistik J:M      Darstellung:
Zur Graphik,    zurück zur Übersicht aller Sensoren.
 
Tabellarische Datenbersicht: ?
 
Sensor: Nr:Datum:Temp:Feuchte:Taupunkt:
Aussen-T/F 1 18-04-2020 00:00:00 13.8 C 77 % 9.84 C
2 18-04-2020 00:05:00 13.8 C 77 % 9.84 C
3 18-04-2020 00:10:00 13.7 C 77 % 9.75 C
4 18-04-2020 00:15:00 13.6 C 77 % 9.65 C
5 18-04-2020 00:20:00 13.4 C 77 % 9.45 C
6 18-04-2020 00:25:00 13.2 C 78 % 9.45 C
7 18-04-2020 00:30:00 13 C 78 % 9.26 C
8 18-04-2020 00:35:00 12.8 C 78 % 9.06 C
9 18-04-2020 00:40:00 12.7 C 79 % 9.16 C
10 18-04-2020 00:45:00 12.6 C 79 % 9.06 C
11 18-04-2020 00:50:00 12.4 C 79 % 8.86 C
12 18-04-2020 00:55:00 12.3 C 79 % 8.77 C
13 18-04-2020 01:00:00 12.3 C 79 % 8.77 C
14 18-04-2020 01:05:00 12.3 C 79 % 8.77 C
15 18-04-2020 01:10:00 12.3 C 79 % 8.77 C
16 18-04-2020 01:15:00 12.2 C 79 % 8.67 C
17 18-04-2020 01:20:00 12.2 C 79 % 8.67 C
18 18-04-2020 01:25:00 12.1 C 79 % 8.57 C
19 18-04-2020 01:30:00 11.9 C 80 % 8.56 C
20 18-04-2020 01:35:00 11.9 C 81 % 8.75 C
21 18-04-2020 01:40:00 11.7 C 80 % 8.37 C
22 18-04-2020 01:45:00 11.5 C 80 % 8.17 C
23 18-04-2020 01:50:00 11.4 C 80 % 8.08 C
24 18-04-2020 01:55:00 11.3 C 81 % 8.16 C
25 18-04-2020 02:00:00 11.3 C 81 % 8.16 C
Sensor: Nr:Datum:Temp:Feuchte:Taupunkt:
Aussen-T/F 26 18-04-2020 02:05:00 11.2 C 81 % 8.06 C
27 18-04-2020 02:10:00 11.3 C 83 % 8.52 C
28 18-04-2020 02:15:00 11.2 C 82 % 8.25 C
29 18-04-2020 02:20:00 11.1 C 83 % 8.33 C
30 18-04-2020 02:25:00 11.1 C 83 % 8.33 C
31 18-04-2020 02:30:00 11.1 C 83 % 8.33 C
32 18-04-2020 02:35:00 10.9 C 84 % 8.31 C
33 18-04-2020 02:40:00 10.8 C 84 % 8.21 C
34 18-04-2020 02:45:00 10.8 C 84 % 8.21 C
35 18-04-2020 02:50:00 10.7 C 84 % 8.11 C
36 18-04-2020 02:55:00 10.6 C 85 % 8.19 C
37 18-04-2020 03:00:00 10.5 C 85 % 8.09 C
38 18-04-2020 03:05:00 10.3 C 85 % 7.89 C
39 18-04-2020 03:10:00 10.3 C 86 % 8.06 C
40 18-04-2020 03:15:00 10.3 C 86 % 8.06 C
41 18-04-2020 03:20:00 10.2 C 86 % 7.97 C
42 18-04-2020 03:25:00 10 C 86 % 7.77 C
43 18-04-2020 03:30:00 9.8 C 86 % 7.57 C
44 18-04-2020 03:35:00 9.7 C 86 % 7.47 C
45 18-04-2020 03:40:00 9.7 C 86 % 7.47 C
46 18-04-2020 03:45:00 9.6 C 86 % 7.38 C
47 18-04-2020 03:50:00 9.6 C 87 % 7.55 C
48 18-04-2020 03:55:00 9.5 C 87 % 7.45 C
49 18-04-2020 04:00:00 9.5 C 88 % 7.61 C
50 18-04-2020 04:05:00 9.5 C 88 % 7.61 C
Sensor: Nr:Datum:Temp:Feuchte:Taupunkt:
Aussen-T/F 51 18-04-2020 04:10:00 9.5 C 88 % 7.61 C
52 18-04-2020 04:15:00 9.4 C 88 % 7.52 C
53 18-04-2020 04:20:00 9.4 C 88 % 7.52 C
54 18-04-2020 04:25:00 9.4 C 89 % 7.68 C
55 18-04-2020 04:30:00 9.4 C 89 % 7.68 C
56 18-04-2020 04:35:00 9.4 C 89 % 7.68 C
57 18-04-2020 04:40:00 9.4 C 89 % 7.68 C
58 18-04-2020 04:45:00 9.3 C 89 % 7.58 C
59 18-04-2020 04:50:00 9.2 C 89 % 7.48 C
60 18-04-2020 04:55:00 9.2 C 89 % 7.48 C
61 18-04-2020 05:00:00 9.2 C 89 % 7.48 C
62 18-04-2020 05:05:00 9.1 C 89 % 7.39 C
63 18-04-2020 05:10:00 9.1 C 89 % 7.39 C
64 18-04-2020 05:15:00 9 C 89 % 7.29 C
65 18-04-2020 05:20:00 9.1 C 89 % 7.39 C
66 18-04-2020 05:25:00 9.1 C 90 % 7.55 C
67 18-04-2020 05:30:00 9.1 C 90 % 7.55 C
68 18-04-2020 05:35:00 9.1 C 90 % 7.55 C
69 18-04-2020 05:40:00 9.1 C 89 % 7.39 C
70 18-04-2020 05:45:00 8.9 C 89 % 7.19 C
71 18-04-2020 05:50:00 8.9 C 89 % 7.19 C
72 18-04-2020 05:55:00 8.9 C 90 % 7.35 C
73 18-04-2020 06:00:00 8.9 C 90 % 7.35 C
74 18-04-2020 06:05:00 8.9 C 90 % 7.35 C
75 18-04-2020 06:10:00 8.9 C 90 % 7.35 C
Sensor: Nr:Datum:Temp:Feuchte:Taupunkt:
Aussen-T/F 76 18-04-2020 06:15:00 8.9 C 90 % 7.35 C
77 18-04-2020 06:20:00 8.9 C 91 % 7.51 C
78 18-04-2020 06:25:00 8.9 C 90 % 7.35 C
79 18-04-2020 06:30:00 8.9 C 90 % 7.35 C
80 18-04-2020 06:35:00 8.9 C 90 % 7.35 C
81 18-04-2020 06:40:00 8.8 C 91 % 7.41 C
82 18-04-2020 06:45:00 8.8 C 90 % 7.25 C
83 18-04-2020 06:50:00 8.7 C 90 % 7.15 C
84 18-04-2020 06:55:00 8.6 C 90 % 7.06 C
85 18-04-2020 07:00:00 8.6 C 91 % 7.22 C
86 18-04-2020 07:05:00 8.7 C 91 % 7.32 C
87 18-04-2020 07:10:00 8.8 C 92 % 7.57 C
88 18-04-2020 07:15:00 9.1 C 92 % 7.87 C
89 18-04-2020 07:20:00 9.3 C 93 % 8.23 C
90 18-04-2020 07:25:00 9.5 C 92 % 8.27 C
91 18-04-2020 07:30:00 9.6 C 92 % 8.37 C
92 18-04-2020 07:35:00 9.7 C 92 % 8.46 C
93 18-04-2020 07:40:00 9.8 C 92 % 8.56 C
94 18-04-2020 07:45:00 9.9 C 92 % 8.66 C
95 18-04-2020 07:50:00 9.9 C 92 % 8.66 C
96 18-04-2020 07:55:00 10 C 92 % 8.76 C
97 18-04-2020 08:00:00 10 C 91 % 8.6 C
98 18-04-2020 08:05:00 10.1 C 91 % 8.7 C
99 18-04-2020 08:10:00 10.1 C 92 % 8.86 C
100 18-04-2020 08:15:00 10.2 C 92 % 8.96 C
Sensor: Nr:Datum:Temp:Feuchte:Taupunkt:
Aussen-T/F 101 18-04-2020 08:20:00 10.2 C 92 % 8.96 C
102 18-04-2020 08:25:00 10.3 C 92 % 9.06 C
103 18-04-2020 08:30:00 10.3 C 92 % 9.06 C
104 18-04-2020 08:35:00 10.3 C 91 % 8.9 C
105 18-04-2020 08:40:00 10.4 C 92 % 9.16 C
106 18-04-2020 08:45:00 10.5 C 92 % 9.26 C
107 18-04-2020 08:50:00 10.7 C 92 % 9.45 C
108 18-04-2020 08:55:00 10.8 C 92 % 9.55 C
109 18-04-2020 09:00:00 10.9 C 92 % 9.65 C
110 18-04-2020 09:05:00 11.1 C 92 % 9.85 C
111 18-04-2020 09:10:00 11.3 C 92 % 10.05 C
112 18-04-2020 09:15:00 11.4 C 91 % 9.98 C
113 18-04-2020 09:20:00 11.7 C 91 % 10.28 C
114 18-04-2020 09:25:00 11.8 C 89 % 10.05 C
115 18-04-2020 09:30:00 12.2 C 88 % 10.27 C
116 18-04-2020 09:35:00 12.6 C 87 % 10.5 C
117 18-04-2020 09:40:00 12.8 C 86 % 10.52 C
118 18-04-2020 09:45:00 13.1 C 84 % 10.46 C
119 18-04-2020 09:50:00 13.3 C 83 % 10.48 C
120 18-04-2020 09:55:00 13.5 C 82 % 10.49 C
121 18-04-2020 10:00:00 13.7 C 81 % 10.5 C
122 18-04-2020 10:05:00 14.1 C 81 % 10.89 C
123 18-04-2020 10:10:00 14.4 C 79 % 10.81 C
124 18-04-2020 10:15:00 14.6 C 79 % 11 C
125 18-04-2020 10:20:00 14.8 C 78 % 11 C
Sensor: Nr:Datum:Temp:Feuchte:Taupunkt:
Aussen-T/F 126 18-04-2020 10:25:00 15 C 78 % 11.2 C
127 18-04-2020 10:30:00 15.3 C 77 % 11.3 C
128 18-04-2020 10:35:00 15.4 C 77 % 11.39 C
129 18-04-2020 10:40:00 15.6 C 77 % 11.59 C
130 18-04-2020 10:45:00 15.7 C 76 % 11.48 C
131 18-04-2020 10:50:00 15.8 C 75 % 11.38 C
132 18-04-2020 10:55:00 16 C 75 % 11.57 C
133 18-04-2020 11:00:00 16.1 C 75 % 11.67 C
134 18-04-2020 11:05:00 16.3 C 76 % 12.07 C
135 18-04-2020 11:10:00 16.5 C 74 % 11.85 C
136 18-04-2020 11:15:00 16.7 C 73 % 11.84 C
137 18-04-2020 11:20:00 16.9 C 71 % 11.61 C
138 18-04-2020 11:25:00 17 C 71 % 11.71 C
139 18-04-2020 11:30:00 17.2 C 71 % 11.9 C
140 18-04-2020 11:35:00 17.2 C 70 % 11.68 C
141 18-04-2020 11:40:00 17.2 C 71 % 11.9 C
142 18-04-2020 11:45:00 17.3 C 71 % 12 C
143 18-04-2020 11:50:00 17.4 C 72 % 12.3 C
144 18-04-2020 11:55:00 17.4 C 70 % 11.88 C
145 18-04-2020 12:00:00 17.6 C 72 % 12.5 C
146 18-04-2020 12:05:00 17.8 C 71 % 12.47 C
147 18-04-2020 12:10:00 17.9 C 70 % 12.35 C
148 18-04-2020 12:15:00 18.1 C 69 % 12.33 C
149 18-04-2020 12:20:00 18.2 C 69 % 12.42 C
150 18-04-2020 12:25:00 18.3 C 67 % 12.07 C
Sensor: Nr:Datum:Temp:Feuchte:Taupunkt:
Aussen-T/F 151 18-04-2020 12:30:00 18.4 C 67 % 12.17 C
152 18-04-2020 12:35:00 18.4 C 65 % 11.71 C
153 18-04-2020 12:40:00 18.5 C 65 % 11.8 C
154 18-04-2020 12:45:00 18.6 C 67 % 12.36 C
155 18-04-2020 12:50:00 18.7 C 67 % 12.45 C
156 18-04-2020 12:55:00 18.8 C 68 % 12.77 C
157 18-04-2020 13:00:00 18.9 C 67 % 12.64 C
158 18-04-2020 13:05:00 19.1 C 64 % 12.14 C
159 18-04-2020 13:10:00 19.2 C 64 % 12.23 C
160 18-04-2020 13:15:00 19.3 C 62 % 11.84 C
161 18-04-2020 13:20:00 19.4 C 62 % 11.94 C
162 18-04-2020 13:25:00 19.6 C 62 % 12.13 C
163 18-04-2020 13:30:00 19.7 C 62 % 12.22 C
164 18-04-2020 13:35:00 19.9 C 61 % 12.16 C
165 18-04-2020 13:40:00 20.1 C 61 % 12.35 C
166 18-04-2020 13:45:00 20.2 C 60 % 12.19 C
167 18-04-2020 13:50:00 20.2 C 59 % 11.94 C
168 18-04-2020 13:55:00 20.3 C 59 % 12.03 C
169 18-04-2020 14:00:00 20.4 C 59 % 12.12 C
170 18-04-2020 14:05:00 20.3 C 59 % 12.03 C
171 18-04-2020 14:10:00 20.4 C 61 % 12.63 C
172 18-04-2020 14:15:00 20.4 C 60 % 12.38 C
173 18-04-2020 14:20:00 20.6 C 60 % 12.57 C
174 18-04-2020 14:25:00 20.7 C 59 % 12.41 C
175 18-04-2020 14:30:00 20.7 C 59 % 12.41 C
Sensor: Nr:Datum:Temp:Feuchte:Taupunkt:
Aussen-T/F 176 18-04-2020 14:35:00 20.7 C 60 % 12.66 C
177 18-04-2020 14:40:00 20.8 C 62 % 13.26 C
178 18-04-2020 14:45:00 20.8 C 62 % 13.26 C
179 18-04-2020 14:50:00 20.9 C 60 % 12.85 C
180 18-04-2020 14:55:00 20.9 C 59 % 12.59 C
181 18-04-2020 15:00:00 21 C 60 % 12.94 C
182 18-04-2020 15:05:00 21.2 C 59 % 12.87 C
183 18-04-2020 15:10:00 21.3 C 58 % 12.71 C
184 18-04-2020 15:15:00 21.4 C 59 % 13.06 C
185 18-04-2020 15:20:00 21.4 C 57 % 12.53 C
186 18-04-2020 15:25:00 21.5 C 57 % 12.63 C
187 18-04-2020 15:30:00 21.4 C 57 % 12.53 C
188 18-04-2020 15:35:00 21.3 C 57 % 12.44 C
189 18-04-2020 15:40:00 21.2 C 58 % 12.61 C
190 18-04-2020 15:45:00 21.2 C 57 % 12.35 C
191 18-04-2020 15:50:00 21.2 C 59 % 12.87 C
192 18-04-2020 15:55:00 20.9 C 61 % 13.1 C
193 18-04-2020 16:00:00 20.8 C 61 % 13.01 C
194 18-04-2020 16:05:00 20.7 C 63 % 13.41 C
195 18-04-2020 16:10:00 20.6 C 63 % 13.31 C
196 18-04-2020 16:15:00 20.4 C 63 % 13.12 C
197 18-04-2020 16:20:00 20.3 C 64 % 13.27 C
198 18-04-2020 16:25:00 20.1 C 65 % 13.32 C
199 18-04-2020 16:30:00 19.7 C 67 % 13.4 C
200 18-04-2020 16:35:00 19.3 C 68 % 13.25 C
Sensor: Nr:Datum:Temp:Feuchte:Taupunkt:
Aussen-T/F 201 18-04-2020 16:40:00 19.1 C 70 % 13.5 C
202 18-04-2020 16:45:00 19 C 70 % 13.41 C
203 18-04-2020 16:50:00 19 C 72 % 13.84 C
204 18-04-2020 16:55:00 18.9 C 72 % 13.74 C
205 18-04-2020 17:00:00 18.9 C 73 % 13.96 C
206 18-04-2020 17:05:00 18.8 C 73 % 13.86 C
207 18-04-2020 17:10:00 18.7 C 74 % 13.97 C
208 18-04-2020 17:15:00 18.6 C 74 % 13.88 C
209 18-04-2020 17:20:00 18.6 C 74 % 13.88 C
210 18-04-2020 17:25:00 18.5 C 77 % 14.39 C
211 18-04-2020 17:30:00 18.4 C 79 % 14.69 C
212 18-04-2020 17:35:00 18.3 C 81 % 14.98 C
213 18-04-2020 17:40:00 18.3 C 82 % 15.17 C
214 18-04-2020 17:45:00 18.1 C 80 % 14.6 C
215 18-04-2020 17:50:00 17.9 C 81 % 14.59 C
216 18-04-2020 17:55:00 17.7 C 81 % 14.4 C
217 18-04-2020 18:00:00 17.6 C 82 % 14.49 C
218 18-04-2020 18:05:00 17.5 C 82 % 14.39 C
219 18-04-2020 18:10:00 17.4 C 83 % 14.48 C
220 18-04-2020 18:15:00 17.4 C 84 % 14.67 C
221 18-04-2020 18:20:00 17.3 C 82 % 14.2 C
222 18-04-2020 18:25:00 17.3 C 82 % 14.2 C
223 18-04-2020 18:30:00 17.4 C 82 % 14.3 C
224 18-04-2020 18:35:00 17.4 C 79 % 13.72 C
225 18-04-2020 18:40:00 17.4 C 78 % 13.53 C
Sensor: Nr:Datum:Temp:Feuchte:Taupunkt:
Aussen-T/F 226 18-04-2020 18:45:00 17.4 C 76 % 13.13 C
227 18-04-2020 18:50:00 17.6 C 75 % 13.12 C
228 18-04-2020 18:55:00 17.7 C 75 % 13.22 C
229 18-04-2020 19:00:00 17.8 C 74 % 13.11 C
230 18-04-2020 19:05:00 17.9 C 73 % 12.99 C
231 18-04-2020 19:10:00 17.8 C 73 % 12.9 C
232 18-04-2020 19:15:00 17.7 C 73 % 12.8 C
233 18-04-2020 19:20:00 17.6 C 73 % 12.71 C
234 18-04-2020 19:25:00 17.6 C 74 % 12.91 C
235 18-04-2020 19:30:00 17.5 C 74 % 12.82 C
236 18-04-2020 19:35:00 17.6 C 74 % 12.91 C
237 18-04-2020 19:40:00 17.8 C 74 % 13.11 C
238 18-04-2020 19:45:00 17.9 C 73 % 12.99 C
239 18-04-2020 19:50:00 17.9 C 73 % 12.99 C
240 18-04-2020 19:55:00 17.8 C 72 % 12.69 C
241 18-04-2020 20:00:00 17.7 C 71 % 12.38 C
242 18-04-2020 20:05:00 17.6 C 71 % 12.28 C
243 18-04-2020 20:10:00 17.4 C 72 % 12.3 C
244 18-04-2020 20:15:00 17.2 C 72 % 12.11 C
245 18-04-2020 20:20:00 17 C 73 % 12.13 C
246 18-04-2020 20:25:00 16.7 C 74 % 12.05 C
247 18-04-2020 20:30:00 16.4 C 76 % 12.16 C
248 18-04-2020 20:35:00 16.1 C 77 % 12.07 C
249 18-04-2020 20:40:00 15.8 C 78 % 11.97 C
250 18-04-2020 20:45:00 15.6 C 79 % 11.97 C
Sensor: Nr:Datum:Temp:Feuchte:Taupunkt:
Aussen-T/F 251 18-04-2020 20:50:00 15.3 C 80 % 11.87 C
252 18-04-2020 20:55:00 15.2 C 81 % 11.96 C
253 18-04-2020 21:00:00 15 C 82 % 11.95 C
254 18-04-2020 21:05:00 14.9 C 82 % 11.86 C
255 18-04-2020 21:10:00 14.9 C 83 % 12.04 C
256 18-04-2020 21:15:00 14.9 C 83 % 12.04 C
257 18-04-2020 21:20:00 14.9 C 83 % 12.04 C
258 18-04-2020 21:25:00 14.9 C 83 % 12.04 C
259 18-04-2020 21:30:00 15 C 82 % 11.95 C
260 18-04-2020 21:35:00 15 C 82 % 11.95 C
261 18-04-2020 21:40:00 15.1 C 82 % 12.05 C
262 18-04-2020 21:45:00 15 C 82 % 11.95 C
263 18-04-2020 21:50:00 15 C 83 % 12.14 C
264 18-04-2020 21:55:00 14.9 C 83 % 12.04 C
265 18-04-2020 22:00:00 14.8 C 83 % 11.94 C
266 18-04-2020 22:05:00 14.7 C 83 % 11.85 C
267 18-04-2020 22:10:00 14.7 C 84 % 12.03 C
268 18-04-2020 22:15:00 14.6 C 84 % 11.93 C
269 18-04-2020 22:20:00 14.5 C 84 % 11.83 C
270 18-04-2020 22:25:00 14.3 C 83 % 11.45 C
271 18-04-2020 22:30:00 14.1 C 84 % 11.44 C
272 18-04-2020 22:35:00 13.9 C 84 % 11.24 C
273 18-04-2020 22:40:00 13.7 C 85 % 11.23 C
274 18-04-2020 22:45:00 13.5 C 85 % 11.03 C
275 18-04-2020 22:50:00 13.3 C 86 % 11.01 C
Sensor: Nr:Datum:Temp:Feuchte:Taupunkt:
Aussen-T/F 276 18-04-2020 22:55:00 13.2 C 86 % 10.91 C
277 18-04-2020 23:00:00 13.2 C 87 % 11.09 C
278 18-04-2020 23:05:00 13.1 C 87 % 10.99 C
279 18-04-2020 23:10:00 13 C 88 % 11.06 C
280 18-04-2020 23:15:00 12.9 C 88 % 10.96 C
281 18-04-2020 23:20:00 12.8 C 88 % 10.86 C
282 18-04-2020 23:25:00 12.7 C 88 % 10.77 C
283 18-04-2020 23:30:00 12.6 C 88 % 10.67 C
284 18-04-2020 23:35:00 12.4 C 88 % 10.47 C
285 18-04-2020 23:40:00 12.3 C 88 % 10.37 C
286 18-04-2020 23:45:00 12.2 C 89 % 10.44 C
287 18-04-2020 23:50:00 12 C 89 % 10.25 C
288 18-04-2020 23:55:00 11.8 C 89 % 10.05 C
289 19-04-2020 00:00:00 11.7 C 89 % 9.95 C
290 19-04-2020 00:05:00 11.6 C 90 % 10.02 C
291 19-04-2020 00:10:00 11.4 C 90 % 9.82 C
292 19-04-2020 00:15:00 11.3 C 90 % 9.72 C
293 19-04-2020 00:20:00 11.2 C 90 % 9.62 C
294 19-04-2020 00:25:00 11.1 C 91 % 9.69 C
295 19-04-2020 00:30:00 11.1 C 91 % 9.69 C
296 19-04-2020 00:35:00 11 C 92 % 9.75 C
297 19-04-2020 00:40:00 10.9 C 92 % 9.65 C
298 19-04-2020 00:45:00 10.8 C 92 % 9.55 C
299 19-04-2020 00:50:00 10.8 C 92 % 9.55 C
300 19-04-2020 00:55:00 10.7 C 92 % 9.45 C
Sensor: Nr:Datum:Temp:Feuchte:Taupunkt:
Aussen-T/F 301 19-04-2020 01:00:00 10.6 C 92 % 9.36 C
302 19-04-2020 01:05:00 10.5 C 92 % 9.26 C
303 19-04-2020 01:10:00 10.5 C 93 % 9.42 C
304 19-04-2020 01:15:00 10.5 C 93 % 9.42 C
305 19-04-2020 01:20:00 10.4 C 93 % 9.32 C
306 19-04-2020 01:25:00 10.3 C 93 % 9.22 C
307 19-04-2020 01:30:00 10.2 C 93 % 9.12 C
308 19-04-2020 01:35:00 10.2 C 93 % 9.12 C
309 19-04-2020 01:40:00 10.2 C 93 % 9.12 C
310 19-04-2020 01:45:00 10.2 C 94 % 9.28 C
311 19-04-2020 01:50:00 10.2 C 94 % 9.28 C
312 19-04-2020 01:55:00 10.1 C 94 % 9.18 C
313 19-04-2020 02:00:00 10 C 93 % 8.92 C
314 19-04-2020 02:05:00 9.9 C 94 % 8.98 C
315 19-04-2020 02:10:00 10 C 94 % 9.08 C
316 19-04-2020 02:15:00 10.1 C 94 % 9.18 C
317 19-04-2020 02:20:00 10.1 C 94 % 9.18 C
318 19-04-2020 02:25:00 10.2 C 94 % 9.28 C
319 19-04-2020 02:30:00 10.2 C 94 % 9.28 C
320 19-04-2020 02:35:00 10.2 C 94 % 9.28 C
321 19-04-2020 02:40:00 10.2 C 95 % 9.44 C
322 19-04-2020 02:45:00 10.2 C 95 % 9.44 C
323 19-04-2020 02:50:00 10.2 C 94 % 9.28 C
324 19-04-2020 02:55:00 10.2 C 94 % 9.28 C
325 19-04-2020 03:00:00 10.2 C 94 % 9.28 C
Sensor: Nr:Datum:Temp:Feuchte:Taupunkt:
Aussen-T/F 326 19-04-2020 03:05:00 10.1 C 94 % 9.18 C
327 19-04-2020 03:10:00 9.9 C 94 % 8.98 C
328 19-04-2020 03:15:00 9.8 C 94 % 8.88 C
329 19-04-2020 03:20:00 9.8 C 94 % 8.88 C
330 19-04-2020 03:25:00 9.7 C 94 % 8.78 C
331 19-04-2020 03:30:00 9.7 C 94 % 8.78 C
332 19-04-2020 03:35:00 9.6 C 94 % 8.68 C
333 19-04-2020 03:40:00 9.4 C 94 % 8.48 C
334 19-04-2020 03:45:00 9.3 C 94 % 8.39 C
335 19-04-2020 03:50:00 9.2 C 94 % 8.29 C
336 19-04-2020 03:55:00 9.2 C 95 % 8.44 C
337 19-04-2020 04:00:00 9.2 C 94 % 8.29 C
338 19-04-2020 04:05:00 9.1 C 94 % 8.19 C
339 19-04-2020 04:10:00 9.2 C 95 % 8.44 C
340 19-04-2020 04:15:00 9.2 C 95 % 8.44 C
341 19-04-2020 04:20:00 9.4 C 95 % 8.64 C
342 19-04-2020 04:25:00 9.5 C 96 % 8.89 C
343 19-04-2020 04:30:00 9.6 C 96 % 8.99 C
344 19-04-2020 04:35:00 9.7 C 96 % 9.09 C
345 19-04-2020 04:40:00 9.7 C 96 % 9.09 C
346 19-04-2020 04:45:00 9.8 C 96 % 9.19 C
347 19-04-2020 04:50:00 9.8 C 96 % 9.19 C
348 19-04-2020 04:55:00 9.8 C 96 % 9.19 C
349 19-04-2020 05:00:00 9.8 C 96 % 9.19 C
350 19-04-2020 05:05:00 9.9 C 96 % 9.29 C
Sensor: Nr:Datum:Temp:Feuchte:Taupunkt:
Aussen-T/F 351 19-04-2020 05:10:00 9.9 C 96 % 9.29 C
352 19-04-2020 05:15:00 9.9 C 96 % 9.29 C
353 19-04-2020 05:20:00 9.9 C 96 % 9.29 C
354 19-04-2020 05:25:00 9.9 C 96 % 9.29 C
355 19-04-2020 05:30:00 9.9 C 96 % 9.29 C
356 19-04-2020 05:35:00 9.9 C 96 % 9.29 C
357 19-04-2020 05:40:00 9.9 C 96 % 9.29 C
358 19-04-2020 05:45:00 9.9 C 96 % 9.29 C
359 19-04-2020 05:50:00 9.9 C 96 % 9.29 C
360 19-04-2020 05:55:00 9.9 C 96 % 9.29 C
361 19-04-2020 06:00:00 10 C 96 % 9.39 C
362 19-04-2020 06:05:00 10.1 C 96 % 9.49 C
363 19-04-2020 06:10:00 10.1 C 96 % 9.49 C
364 19-04-2020 06:15:00 10.1 C 96 % 9.49 C
365 19-04-2020 06:20:00 10.1 C 96 % 9.49 C
366 19-04-2020 06:25:00 10.1 C 96 % 9.49 C
367 19-04-2020 06:30:00 10.2 C 96 % 9.59 C
368 19-04-2020 06:35:00 10.2 C 96 % 9.59 C
369 19-04-2020 06:40:00 10.2 C 96 % 9.59 C
370 19-04-2020 06:45:00 10.2 C 96 % 9.59 C
371 19-04-2020 06:50:00 10.3 C 96 % 9.69 C
372 19-04-2020 06:55:00 10.3 C 96 % 9.69 C
373 19-04-2020 07:00:00 10.3 C 96 % 9.69 C
374 19-04-2020 07:05:00 10.3 C 96 % 9.69 C
375 19-04-2020 07:10:00 10.3 C 96 % 9.69 C
Sensor: Nr:Datum:Temp:Feuchte:Taupunkt:
Aussen-T/F 376 19-04-2020 07:15:00 10.3 C 96 % 9.69 C
377 19-04-2020 07:20:00 10.4 C 96 % 9.79 C
378 19-04-2020 07:25:00 10.4 C 96 % 9.79 C
379 19-04-2020 07:30:00 10.4 C 96 % 9.79 C
380 19-04-2020 07:35:00 10.4 C 96 % 9.79 C
381 19-04-2020 07:40:00 10.5 C 96 % 9.89 C
382 19-04-2020 07:45:00 10.5 C 96 % 9.89 C
383 19-04-2020 07:50:00 10.5 C 96 % 9.89 C
384 19-04-2020 07:55:00 10.6 C 96 % 9.99 C
385 19-04-2020 08:00:00 10.6 C 96 % 9.99 C
386 19-04-2020 08:05:00 10.6 C 96 % 9.99 C
387 19-04-2020 08:10:00 10.7 C 96 % 10.09 C
388 19-04-2020 08:15:00 10.8 C 96 % 10.19 C
389 19-04-2020 08:20:00 11.1 C 96 % 10.49 C
390 19-04-2020 08:25:00 11.1 C 96 % 10.49 C
391 19-04-2020 08:30:00 11.2 C 96 % 10.59 C
392 19-04-2020 08:35:00 11.3 C 96 % 10.69 C
393 19-04-2020 08:40:00 11.4 C 96 % 10.79 C
394 19-04-2020 08:45:00 11.7 C 96 % 11.08 C
395 19-04-2020 08:50:00 11.8 C 96 % 11.18 C
396 19-04-2020 08:55:00 11.9 C 96 % 11.28 C
397 19-04-2020 09:00:00 12 C 95 % 11.22 C
398 19-04-2020 09:05:00 12.1 C 95 % 11.32 C
399 19-04-2020 09:10:00 12.2 C 95 % 11.42 C
400 19-04-2020 09:15:00 12.3 C 94 % 11.36 C
Sensor: Nr:Datum:Temp:Feuchte:Taupunkt:
Aussen-T/F 401 19-04-2020 09:20:00 12.3 C 93 % 11.2 C
402 19-04-2020 09:25:00 12.4 C 92 % 11.14 C
403 19-04-2020 09:30:00 12.6 C 92 % 11.34 C
404 19-04-2020 09:35:00 12.7 C 91 % 11.27 C
405 19-04-2020 09:40:00 12.8 C 91 % 11.37 C
406 19-04-2020 09:45:00 12.9 C 91 % 11.47 C
407 19-04-2020 09:50:00 13 C 89 % 11.23 C
408 19-04-2020 09:55:00 13.1 C 89 % 11.33 C
409 19-04-2020 10:00:00 13.2 C 88 % 11.26 C
410 19-04-2020 10:05:00 13.3 C 88 % 11.36 C
411 19-04-2020 10:10:00 13.4 C 87 % 11.28 C
412 19-04-2020 10:15:00 13.5 C 87 % 11.38 C
413 19-04-2020 10:20:00 13.8 C 87 % 11.68 C
414 19-04-2020 10:25:00 14 C 86 % 11.7 C
415 19-04-2020 10:30:00 14.1 C 84 % 11.44 C
416 19-04-2020 10:35:00 14.1 C 84 % 11.44 C
417 19-04-2020 10:40:00 14.3 C 84 % 11.64 C
418 19-04-2020 10:45:00 14.4 C 83 % 11.55 C
419 19-04-2020 10:50:00 14.5 C 83 % 11.65 C
420 19-04-2020 10:55:00 14.6 C 82 % 11.56 C
421 19-04-2020 11:00:00 14.6 C 81 % 11.38 C
422 19-04-2020 11:05:00 14.6 C 81 % 11.38 C
423 19-04-2020 11:10:00 14.4 C 81 % 11.18 C
424 19-04-2020 11:15:00 14.3 C 82 % 11.27 C
425 19-04-2020 11:20:00 14.3 C 82 % 11.27 C
Sensor: Nr:Datum:Temp:Feuchte:Taupunkt:
Aussen-T/F 426 19-04-2020 11:25:00 14.3 C 82 % 11.27 C
427 19-04-2020 11:30:00 14.3 C 82 % 11.27 C
428 19-04-2020 11:35:00 14.2 C 83 % 11.36 C
429 19-04-2020 11:40:00 14.2 C 83 % 11.36 C
430 19-04-2020 11:45:00 14.1 C 83 % 11.26 C
431 19-04-2020 11:50:00 13.9 C 84 % 11.24 C
432 19-04-2020 11:55:00 13.9 C 85 % 11.42 C
433 19-04-2020 12:00:00 13.8 C 84 % 11.15 C
434 19-04-2020 12:05:00 13.8 C 84 % 11.15 C
435 19-04-2020 12:10:00 13.9 C 84 % 11.24 C
436 19-04-2020 12:15:00 13.9 C 82 % 10.88 C
437 19-04-2020 12:20:00 14.1 C 82 % 11.08 C
438 19-04-2020 12:25:00 14.3 C 82 % 11.27 C
439 19-04-2020 12:30:00 14.4 C 80 % 11 C
440 19-04-2020 12:35:00 14.6 C 80 % 11.19 C
441 19-04-2020 12:40:00 14.8 C 78 % 11 C
442 19-04-2020 12:45:00 14.9 C 77 % 10.91 C
443 19-04-2020 12:50:00 15.1 C 77 % 11.1 C
444 19-04-2020 12:55:00 15.3 C 76 % 11.1 C
445 19-04-2020 13:00:00 15.6 C 75 % 11.19 C
446 19-04-2020 13:05:00 15.8 C 74 % 11.18 C
447 19-04-2020 13:10:00 15.9 C 74 % 11.28 C
448 19-04-2020 13:15:00 15.9 C 73 % 11.07 C
449 19-04-2020 13:20:00 16 C 73 % 11.17 C
450 19-04-2020 13:25:00 16.2 C 73 % 11.36 C
Sensor: Nr:Datum:Temp:Feuchte:Taupunkt:
Aussen-T/F 451 19-04-2020 13:30:00 16.3 C 72 % 11.25 C
452 19-04-2020 13:35:00 16.4 C 72 % 11.34 C
453 19-04-2020 13:40:00 16.7 C 72 % 11.63 C
454 19-04-2020 13:45:00 16.8 C 71 % 11.52 C
455 19-04-2020 13:50:00 16.9 C 70 % 11.4 C
456 19-04-2020 13:55:00 17.1 C 69 % 11.37 C
457 19-04-2020 14:00:00 17.1 C 69 % 11.37 C
458 19-04-2020 14:05:00 17.2 C 68 % 11.25 C
459 19-04-2020 14:10:00 17.1 C 67 % 10.93 C
460 19-04-2020 14:15:00 17.1 C 68 % 11.15 C
461 19-04-2020 14:20:00 17.2 C 68 % 11.25 C
462 19-04-2020 14:25:00 17.2 C 68 % 11.25 C
463 19-04-2020 14:30:00 17 C 68 % 11.06 C
464 19-04-2020 14:35:00 16.9 C 69 % 11.18 C
465 19-04-2020 14:40:00 16.9 C 70 % 11.4 C
466 19-04-2020 14:45:00 17 C 69 % 11.28 C
467 19-04-2020 14:50:00 17 C 68 % 11.06 C
468 19-04-2020 14:55:00 16.8 C 69 % 11.09 C
469 19-04-2020 15:00:00 16.6 C 68 % 10.67 C
470 19-04-2020 15:05:00 16.5 C 69 % 10.8 C
471 19-04-2020 15:10:00 16.4 C 67 % 10.26 C
472 19-04-2020 15:15:00 16.3 C 67 % 10.17 C
473 19-04-2020 15:20:00 16.3 C 66 % 9.94 C
474 19-04-2020 15:25:00 16.2 C 66 % 9.85 C
475 19-04-2020 15:30:00 16.3 C 65 % 9.71 C
Sensor: Nr:Datum:Temp:Feuchte:Taupunkt:
Aussen-T/F 476 19-04-2020 15:35:00 16.3 C 65 % 9.71 C
477 19-04-2020 15:40:00 16.4 C 65 % 9.81 C
478 19-04-2020 15:45:00 16.6 C 65 % 10 C
479 19-04-2020 15:50:00 16.6 C 64 % 9.77 C
480 19-04-2020 15:55:00 16.7 C 64 % 9.86 C
481 19-04-2020 16:00:00 16.9 C 65 % 10.28 C
482 19-04-2020 16:05:00 17.1 C 63 % 10.01 C
483 19-04-2020 16:10:00 17.3 C 62 % 9.96 C
484 19-04-2020 16:15:00 17.6 C 61 % 10 C
485 19-04-2020 16:20:00 17.8 C 60 % 9.94 C
486 19-04-2020 16:25:00 17.8 C 59 % 9.69 C
487 19-04-2020 16:30:00 17.6 C 60 % 9.75 C
488 19-04-2020 16:35:00 17.4 C 60 % 9.56 C
489 19-04-2020 16:40:00 17.4 C 60 % 9.56 C
490 19-04-2020 16:45:00 17.6 C 60 % 9.75 C
491 19-04-2020 16:50:00 17.8 C 61 % 10.18 C
492 19-04-2020 16:55:00 18.1 C 59 % 9.97 C
493 19-04-2020 17:00:00 17.6 C 58 % 9.25 C
494 19-04-2020 17:05:00 17.1 C 61 % 9.53 C
495 19-04-2020 17:10:00 17.2 C 61 % 9.62 C
496 19-04-2020 17:15:00 17.2 C 59 % 9.13 C
497 19-04-2020 17:20:00 17.4 C 59 % 9.31 C
498 19-04-2020 17:25:00 17.6 C 58 % 9.25 C
499 19-04-2020 17:30:00 17.8 C 57 % 9.18 C
500 19-04-2020 17:35:00 17.4 C 56 % 8.54 C
Sensor: Nr:Datum:Temp:Feuchte:Taupunkt:
Aussen-T/F 501 19-04-2020 17:40:00 17.3 C 58 % 8.97 C
502 19-04-2020 17:45:00 17.5 C 57 % 8.9 C
503 19-04-2020 17:50:00 17.4 C 56 % 8.54 C
504 19-04-2020 17:55:00 17.3 C 56 % 8.45 C
505 19-04-2020 18:00:00 17.2 C 56 % 8.35 C
506 19-04-2020 18:05:00 17.3 C 56 % 8.45 C
507 19-04-2020 18:10:00 17.2 C 57 % 8.62 C
508 19-04-2020 18:15:00 17.3 C 55 % 8.18 C
509 19-04-2020 18:20:00 17.4 C 55 % 8.28 C
510 19-04-2020 18:25:00 17.5 C 53 % 7.82 C
511 19-04-2020 18:30:00 17.4 C 53 % 7.73 C
512 19-04-2020 18:35:00 17.3 C 53 % 7.64 C
513 19-04-2020 18:40:00 17.3 C 52 % 7.36 C
514 19-04-2020 18:45:00 17.1 C 51 % 6.89 C
515 19-04-2020 18:50:00 17.1 C 51 % 6.89 C
516 19-04-2020 18:55:00 17.3 C 53 % 7.64 C
517 19-04-2020 19:00:00 17.4 C 51 % 7.17 C
518 19-04-2020 19:05:00 17.6 C 50 % 7.06 C
519 19-04-2020 19:10:00 17.3 C 50 % 6.79 C
520 19-04-2020 19:15:00 17.2 C 51 % 6.98 C
521 19-04-2020 19:20:00 16.8 C 51 % 6.62 C
522 19-04-2020 19:25:00 16.6 C 53 % 6.99 C
523 19-04-2020 19:30:00 16.6 C 52 % 6.71 C
524 19-04-2020 19:35:00 16.4 C 50 % 5.96 C
525 19-04-2020 19:40:00 16.2 C 51 % 6.06 C
Sensor: Nr:Datum:Temp:Feuchte:Taupunkt:
Aussen-T/F 526 19-04-2020 19:45:00 16 C 53 % 6.44 C
527 19-04-2020 19:50:00 15.8 C 54 % 6.52 C
528 19-04-2020 19:55:00 15.7 C 54 % 6.43 C
529 19-04-2020 20:00:00 15.4 C 56 % 6.68 C
530 19-04-2020 20:05:00 15.3 C 57 % 6.84 C
531 19-04-2020 20:10:00 15.1 C 59 % 7.16 C
532 19-04-2020 20:15:00 14.8 C 59 % 6.87 C
533 19-04-2020 20:20:00 14.3 C 61 % 6.89 C
534 19-04-2020 20:25:00 14 C 61 % 6.61 C
535 19-04-2020 20:30:00 13.7 C 63 % 6.79 C
536 19-04-2020 20:35:00 13.3 C 63 % 6.41 C
537 19-04-2020 20:40:00 13.1 C 65 % 6.68 C
538 19-04-2020 20:45:00 12.8 C 66 % 6.61 C
539 19-04-2020 20:50:00 12.6 C 66 % 6.42 C
540 19-04-2020 20:55:00 12.4 C 66 % 6.23 C
541 19-04-2020 21:00:00 12.3 C 67 % 6.36 C
542 19-04-2020 21:05:00 12.2 C 67 % 6.26 C
543 19-04-2020 21:10:00 12.1 C 66 % 5.95 C
544 19-04-2020 21:15:00 12 C 67 % 6.07 C
545 19-04-2020 21:20:00 11.9 C 68 % 6.19 C
546 19-04-2020 21:25:00 11.8 C 68 % 6.09 C
547 19-04-2020 21:30:00 11.7 C 68 % 6 C
548 19-04-2020 21:35:00 11.6 C 68 % 5.9 C
549 19-04-2020 21:40:00 11.6 C 68 % 5.9 C
550 19-04-2020 21:45:00 11.4 C 68 % 5.71 C
Sensor: Nr:Datum:Temp:Feuchte:Taupunkt:
Aussen-T/F 551 19-04-2020 21:50:00 11.4 C 67 % 5.5 C
552 19-04-2020 21:55:00 11.3 C 67 % 5.4 C
553 19-04-2020 22:00:00 11.3 C 65 % 4.97 C
554 19-04-2020 22:05:00 11.4 C 66 % 5.28 C
555 19-04-2020 22:10:00 11.4 C 65 % 5.06 C
556 19-04-2020 22:15:00 11.4 C 66 % 5.28 C
557 19-04-2020 22:20:00 11.3 C 65 % 4.97 C
558 19-04-2020 22:25:00 11.2 C 65 % 4.87 C
559 19-04-2020 22:30:00 11.2 C 64 % 4.65 C
560 19-04-2020 22:35:00 11.1 C 64 % 4.56 C
561 19-04-2020 22:40:00 11 C 64 % 4.46 C
562 19-04-2020 22:45:00 10.8 C 65 % 4.49 C
563 19-04-2020 22:50:00 10.7 C 63 % 3.95 C
564 19-04-2020 22:55:00 10.7 C 64 % 4.18 C
565 19-04-2020 23:00:00 10.8 C 58 % 2.88 C
566 19-04-2020 23:05:00 11.1 C 62 % 4.11 C
567 19-04-2020 23:10:00 11.1 C 61 % 3.87 C
568 19-04-2020 23:15:00 10.8 C 62 % 3.82 C
569 19-04-2020 23:20:00 10.6 C 63 % 3.86 C
570 19-04-2020 23:25:00 10.3 C 63 % 3.58 C
571 19-04-2020 23:30:00 10.2 C 63 % 3.48 C
572 19-04-2020 23:35:00 10.3 C 61 % 3.12 C
573 19-04-2020 23:40:00 10.4 C 59 % 2.74 C
574 19-04-2020 23:45:00 10.6 C 58 % 2.69 C
575 19-04-2020 23:50:00 10.8 C 61 % 3.59 C
Sensor: Nr:Datum:Temp:Feuchte:Taupunkt:
Aussen-T/F 576 19-04-2020 23:55:00 10.7 C 60 % 3.26 C
577 20-04-2020 00:00:00 10.7 C 58 % 2.79 C
578 20-04-2020 00:05:00 10.6 C 60 % 3.17 C
579 20-04-2020 00:10:00 10.4 C 61 % 3.21 C
580 20-04-2020 00:15:00 10.2 C 60 % 2.79 C
581 20-04-2020 00:20:00 10.1 C 57 % 1.98 C
582 20-04-2020 00:25:00 10.2 C 56 % 1.83 C
583 20-04-2020 00:30:00 10.3 C 59 % 2.65 C
584 20-04-2020 00:35:00 10.3 C 58 % 2.41 C
585 20-04-2020 00:40:00 10.3 C 59 % 2.65 C
586 20-04-2020 00:45:00 10.2 C 58 % 2.32 C
587 20-04-2020 00:50:00 10.2 C 57 % 2.07 C
588 20-04-2020 00:55:00 10.1 C 59 % 2.46 C
589 20-04-2020 01:00:00 9.9 C 57 % 1.79 C
590 20-04-2020 01:05:00 10 C 57 % 1.89 C
591 20-04-2020 01:10:00 10 C 57 % 1.89 C
592 20-04-2020 01:15:00 9.9 C 57 % 1.79 C
593 20-04-2020 01:20:00 9.9 C 58 % 2.04 C
594 20-04-2020 01:25:00 9.9 C 55 % 1.3 C
595 20-04-2020 01:30:00 10.1 C 58 % 2.22 C
596 20-04-2020 01:35:00 9.9 C 57 % 1.79 C
597 20-04-2020 01:40:00 9.8 C 58 % 1.94 C
598 20-04-2020 01:45:00 9.7 C 59 % 2.09 C
599 20-04-2020 01:50:00 9.5 C 60 % 2.13 C
600 20-04-2020 01:55:00 9.2 C 62 % 2.31 C
Sensor: Nr:Datum:Temp:Feuchte:Taupunkt:
Aussen-T/F 601 20-04-2020 02:00:00 9 C 62 % 2.12 C
602 20-04-2020 02:05:00 8.8 C 63 % 2.16 C
603 20-04-2020 02:10:00 8.5 C 62 % 1.65 C
604 20-04-2020 02:15:00 8.4 C 63 % 1.78 C
605 20-04-2020 02:20:00 8.3 C 65 % 2.12 C
606 20-04-2020 02:25:00 8.2 C 64 % 1.81 C
607 20-04-2020 02:30:00 7.9 C 66 % 1.95 C
608 20-04-2020 02:35:00 7.8 C 65 % 1.64 C
609 20-04-2020 02:40:00 7.7 C 67 % 1.97 C
610 20-04-2020 02:45:00 7.6 C 66 % 1.67 C
611 20-04-2020 02:50:00 7.6 C 68 % 2.08 C
612 20-04-2020 02:55:00 7.5 C 68 % 1.99 C
613 20-04-2020 03:00:00 7.4 C 66 % 1.48 C
614 20-04-2020 03:05:00 7.4 C 67 % 1.69 C
615 20-04-2020 03:10:00 7.4 C 68 % 1.89 C
616 20-04-2020 03:15:00 7.3 C 68 % 1.8 C
617 20-04-2020 03:20:00 7.3 C 68 % 1.8 C
618 20-04-2020 03:25:00 7.2 C 69 % 1.9 C
619 20-04-2020 03:30:00 7.1 C 68 % 1.61 C
620 20-04-2020 03:35:00 7.1 C 68 % 1.61 C
621 20-04-2020 03:40:00 7.2 C 68 % 1.7 C
622 20-04-2020 03:45:00 7.1 C 69 % 1.81 C
623 20-04-2020 03:50:00 7.1 C 69 % 1.81 C
624 20-04-2020 03:55:00 7 C 69 % 1.71 C
625 20-04-2020 04:00:00 6.9 C 69 % 1.62 C
Sensor: Nr:Datum:Temp:Feuchte:Taupunkt:
Aussen-T/F 626 20-04-2020 04:05:00 6.8 C 70 % 1.72 C
627 20-04-2020 04:10:00 6.7 C 70 % 1.63 C
628 20-04-2020 04:15:00 6.7 C 70 % 1.63 C
629 20-04-2020 04:20:00 6.6 C 70 % 1.53 C
630 20-04-2020 04:25:00 6.6 C 70 % 1.53 C
631 20-04-2020 04:30:00 6.6 C 70 % 1.53 C
632 20-04-2020 04:35:00 6.6 C 70 % 1.53 C
633 20-04-2020 04:40:00 6.5 C 70 % 1.43 C
634 20-04-2020 04:45:00 6.5 C 70 % 1.43 C
635 20-04-2020 04:50:00 6.4 C 71 % 1.54 C
636 20-04-2020 04:55:00 6.4 C 70 % 1.34 C
637 20-04-2020 05:00:00 6.4 C 69 % 1.14 C
638 20-04-2020 05:05:00 6.6 C 70 % 1.53 C
639 20-04-2020 05:10:00 6.6 C 70 % 1.53 C
640 20-04-2020 05:15:00 6.7 C 70 % 1.63 C
641 20-04-2020 05:20:00 6.7 C 70 % 1.63 C
642 20-04-2020 05:25:00 6.7 C 70 % 1.63 C
643 20-04-2020 05:30:00 6.6 C 70 % 1.53 C
644 20-04-2020 05:35:00 6.6 C 71 % 1.73 C
645 20-04-2020 05:40:00 6.5 C 70 % 1.43 C
646 20-04-2020 05:45:00 6.5 C 70 % 1.43 C
647 20-04-2020 05:50:00 6.5 C 71 % 1.63 C
648 20-04-2020 05:55:00 6.5 C 71 % 1.63 C
649 20-04-2020 06:00:00 6.4 C 71 % 1.54 C
650 20-04-2020 06:05:00 6.4 C 71 % 1.54 C
Sensor: Nr:Datum:Temp:Feuchte:Taupunkt:
Aussen-T/F 651 20-04-2020 06:10:00 6.4 C 71 % 1.54 C
652 20-04-2020 06:15:00 6.3 C 71 % 1.44 C
653 20-04-2020 06:20:00 6.3 C 70 % 1.24 C
654 20-04-2020 06:25:00 6.3 C 71 % 1.44 C
655 20-04-2020 06:30:00 6.4 C 70 % 1.34 C
656 20-04-2020 06:35:00 6.5 C 71 % 1.63 C
657 20-04-2020 06:40:00 6.4 C 71 % 1.54 C
658 20-04-2020 06:45:00 6.4 C 72 % 1.73 C
659 20-04-2020 06:50:00 6.3 C 72 % 1.63 C
660 20-04-2020 06:55:00 6.3 C 72 % 1.63 C
661 20-04-2020 07:00:00 6.4 C 70 % 1.34 C
662 20-04-2020 07:05:00 6.5 C 70 % 1.43 C
663 20-04-2020 07:10:00 6.7 C 70 % 1.63 C
664 20-04-2020 07:15:00 6.7 C 70 % 1.63 C
665 20-04-2020 07:20:00 6.7 C 70 % 1.63 C
666 20-04-2020 07:25:00 6.7 C 72 % 2.02 C
667 20-04-2020 07:30:00 6.8 C 68 % 1.32 C
668 20-04-2020 07:35:00 6.9 C 70 % 1.82 C
669 20-04-2020 07:40:00 7.1 C 67 % 1.4 C
670 20-04-2020 07:45:00 7.3 C 67 % 1.59 C
671 20-04-2020 07:50:00 7.4 C 65 % 1.26 C
672 20-04-2020 07:55:00 7.7 C 65 % 1.55 C
673 20-04-2020 08:00:00 7.8 C 65 % 1.64 C
674 20-04-2020 08:05:00 7.9 C 65 % 1.74 C
675 20-04-2020 08:10:00 8.1 C 63 % 1.49 C
Sensor: Nr:Datum:Temp:Feuchte:Taupunkt:
Aussen-T/F 676 20-04-2020 08:15:00 8.2 C 62 % 1.37 C
677 20-04-2020 08:20:00 8.4 C 64 % 2 C
678 20-04-2020 08:25:00 8.4 C 64 % 2 C
679 20-04-2020 08:30:00 8.4 C 63 % 1.78 C
680 20-04-2020 08:35:00 8.4 C 64 % 2 C
681 20-04-2020 08:40:00 8.4 C 63 % 1.78 C
682 20-04-2020 08:45:00 8.5 C 62 % 1.65 C
683 20-04-2020 08:50:00 8.7 C 63 % 2.06 C
684 20-04-2020 08:55:00 8.8 C 62 % 1.93 C
685 20-04-2020 09:00:00 8.8 C 62 % 1.93 C
686 20-04-2020 09:05:00 8.9 C 62 % 2.03 C
687 20-04-2020 09:10:00 8.9 C 64 % 2.47 C
688 20-04-2020 09:15:00 9 C 61 % 1.89 C
689 20-04-2020 09:20:00 9 C 64 % 2.57 C
690 20-04-2020 09:25:00 9.1 C 65 % 2.88 C
691 20-04-2020 09:30:00 9 C 62 % 2.12 C
692 20-04-2020 09:35:00 9.3 C 65 % 3.07 C
693 20-04-2020 09:40:00 9.4 C 61 % 2.27 C
694 20-04-2020 09:45:00 9.7 C 60 % 2.32 C
695 20-04-2020 09:50:00 9.7 C 63 % 3.01 C
696 20-04-2020 09:55:00 9.7 C 60 % 2.32 C
697 20-04-2020 10:00:00 9.9 C 61 % 2.74 C
698 20-04-2020 10:05:00 10.1 C 61 % 2.93 C
699 20-04-2020 10:10:00 10.4 C 58 % 2.5 C
700 20-04-2020 10:15:00 10.7 C 57 % 2.54 C
Sensor: Nr:Datum:Temp:Feuchte:Taupunkt:
Aussen-T/F 701 20-04-2020 10:20:00 11.2 C 54 % 2.25 C
702 20-04-2020 10:25:00 11.5 C 54 % 2.53 C
703 20-04-2020 10:30:00 11.8 C 52 % 2.28 C
704 20-04-2020 10:35:00 12.1 C 55 % 3.34 C
705 20-04-2020 10:40:00 12.2 C 52 % 2.65 C
706 20-04-2020 10:45:00 12.5 C 51 % 2.65 C
707 20-04-2020 10:50:00 12.7 C 49 % 2.27 C
708 20-04-2020 10:55:00 13 C 49 % 2.55 C
709 20-04-2020 11:00:00 13.3 C 46 % 1.94 C
710 20-04-2020 11:05:00 13.4 C 46 % 2.03 C
711 20-04-2020 11:10:00 13.7 C 46 % 2.3 C
712 20-04-2020 11:15:00 13.8 C 45 % 2.09 C
713 20-04-2020 11:20:00 13.9 C 47 % 2.79 C
714 20-04-2020 11:25:00 14.2 C 49 % 3.65 C
715 20-04-2020 11:30:00 14.3 C 43 % 1.91 C
716 20-04-2020 11:35:00 14.4 C 44 % 2.32 C
717 20-04-2020 11:40:00 14.6 C 43 % 2.18 C
718 20-04-2020 11:45:00 14.7 C 43 % 2.27 C
719 20-04-2020 11:50:00 14.8 C 42 % 2.03 C
720 20-04-2020 11:55:00 14.9 C 41 % 1.78 C
721 20-04-2020 12:00:00 14.9 C 41 % 1.78 C
722 20-04-2020 12:05:00 15 C 43 % 2.54 C
723 20-04-2020 12:10:00 15 C 40 % 1.53 C
724 20-04-2020 12:15:00 14.9 C 40 % 1.44 C
725 20-04-2020 12:20:00 14.9 C 41 % 1.78 C
Sensor: Nr:Datum:Temp:Feuchte:Taupunkt:
Aussen-T/F 726 20-04-2020 12:25:00 15.1 C 40 % 1.62 C
727 20-04-2020 12:30:00 15.1 C 39 % 1.26 C
728 20-04-2020 12:35:00 15.1 C 39 % 1.26 C
729 20-04-2020 12:40:00 15.1 C 39 % 1.26 C
730 20-04-2020 12:45:00 15.1 C 40 % 1.62 C
731 20-04-2020 12:50:00 15.2 C 40 % 1.71 C
732 20-04-2020 12:55:00 15.3 C 39 % 1.44 C
733 20-04-2020 13:00:00 15.4 C 39 % 1.53 C
734 20-04-2020 13:05:00 15.5 C 38 % 1.26 C
735 20-04-2020 13:10:00 15.7 C 41 % 2.5 C
736 20-04-2020 13:15:00 15.9 C 38 % 1.62 C
737 20-04-2020 13:20:00 15.8 C 38 % 1.53 C
738 20-04-2020 13:25:00 15.9 C 38 % 1.62 C
739 20-04-2020 13:30:00 16.1 C 37 % 1.42 C
740 20-04-2020 13:35:00 16.2 C 38 % 1.88 C
741 20-04-2020 13:40:00 16.3 C 37 % 1.6 C
742 20-04-2020 13:45:00 16.4 C 37 % 1.69 C
743 20-04-2020 13:50:00 16.4 C 38 % 2.06 C
744 20-04-2020 13:55:00 16.7 C 36 % 1.57 C
745 20-04-2020 14:00:00 16.8 C 37 % 2.04 C
746 20-04-2020 14:05:00 16.9 C 36 % 1.75 C
747 20-04-2020 14:10:00 16.9 C 35 % 1.36 C
748 20-04-2020 14:15:00 17 C 35 % 1.45 C
749 20-04-2020 14:20:00 17.1 C 37 % 2.31 C
750 20-04-2020 14:25:00 17.3 C 33 % 0.89 C
Sensor: Nr:Datum:Temp:Feuchte:Taupunkt:
Aussen-T/F 751 20-04-2020 14:30:00 17.3 C 34 % 1.31 C
752 20-04-2020 14:35:00 17.3 C 34 % 1.31 C
753 20-04-2020 14:40:00 17.5 C 34 % 1.48 C
754 20-04-2020 14:45:00 17.6 C 34 % 1.57 C
755 20-04-2020 14:50:00 17.7 C 34 % 1.66 C
756 20-04-2020 14:55:00 17.8 C 34 % 1.75 C
757 20-04-2020 15:00:00 17.9 C 34 % 1.83 C
758 20-04-2020 15:05:00 18.1 C 32 % 1.17 C
759 20-04-2020 15:10:00 18 C 32 % 1.08 C
760 20-04-2020 15:15:00 18.1 C 32 % 1.17 C
761 20-04-2020 15:20:00 18.2 C 32 % 1.25 C
762 20-04-2020 15:25:00 18.3 C 33 % 1.77 C
763 20-04-2020 15:30:00 18.5 C 33 % 1.94 C
764 20-04-2020 15:35:00 18.6 C 32 % 1.6 C
765 20-04-2020 15:40:00 18.7 C 31 % 1.25 C
766 20-04-2020 15:45:00 18.8 C 31 % 1.33 C
767 20-04-2020 15:50:00 18.8 C 31 % 1.33 C
768 20-04-2020 15:55:00 18.9 C 31 % 1.42 C
769 20-04-2020 16:00:00 19 C 30 % 1.05 C
770 20-04-2020 16:05:00 19.1 C 31 % 1.59 C
771 20-04-2020 16:10:00 19.2 C 30 % 1.23 C
772 20-04-2020 16:15:00 19.3 C 30 % 1.31 C
773 20-04-2020 16:20:00 19.5 C 30 % 1.48 C
774 20-04-2020 16:25:00 19.7 C 31 % 2.12 C
775 20-04-2020 16:30:00 19.9 C 30 % 1.83 C
Sensor: Nr:Datum:Temp:Feuchte:Taupunkt:
Aussen-T/F 776 20-04-2020 16:35:00 19.6 C 30 % 1.57 C
777 20-04-2020 16:40:00 19.3 C 31 % 1.77 C
778 20-04-2020 16:45:00 19.7 C 32 % 2.56 C
779 20-04-2020 16:50:00 19.8 C 30 % 1.74 C
780 20-04-2020 16:55:00 19.9 C 32 % 2.73 C
781 20-04-2020 17:00:00 20.3 C 31 % 2.64 C
782 20-04-2020 17:05:00 20.6 C 31 % 2.9 C
783 20-04-2020 17:10:00 20.3 C 30 % 2.18 C
784 20-04-2020 17:15:00 20.1 C 31 % 2.46 C
785 20-04-2020 17:20:00 20.1 C 30 % 2 C
786 20-04-2020 17:25:00 19.9 C 31 % 2.29 C
787 20-04-2020 17:30:00 19.5 C 32 % 2.39 C
788 20-04-2020 17:35:00 19.2 C 34 % 2.98 C
789 20-04-2020 17:40:00 19.3 C 33 % 2.64 C
790 20-04-2020 17:45:00 19.6 C 33 % 2.91 C
791 20-04-2020 17:50:00 19.7 C 33 % 2.99 C
792 20-04-2020 17:55:00 19.4 C 36 % 3.96 C
793 20-04-2020 18:00:00 19.2 C 42 % 5.99 C
794 20-04-2020 18:05:00 18.5 C 36 % 3.17 C
795 20-04-2020 18:10:00 18.4 C 39 % 4.21 C
796 20-04-2020 18:15:00 18.6 C 37 % 3.64 C
797 20-04-2020 18:20:00 18.7 C 36 % 3.34 C
798 20-04-2020 18:25:00 18.6 C 36 % 3.25 C
799 20-04-2020 18:30:00 18.6 C 35 % 2.86 C
800 20-04-2020 18:35:00 18.6 C 35 % 2.86 C
Sensor: Nr:Datum:Temp:Feuchte:Taupunkt:
Aussen-T/F 801 20-04-2020 18:40:00 18.7 C 35 % 2.94 C
802 20-04-2020 18:45:00 18.6 C 37 % 3.64 C
803 20-04-2020 18:50:00 18.7 C 35 % 2.94 C
804 20-04-2020 18:55:00 18.8 C 35 % 3.03 C
805 20-04-2020 19:00:00 18.6 C 35 % 2.86 C
806 20-04-2020 19:05:00 18.4 C 35 % 2.68 C
807 20-04-2020 19:10:00 18.2 C 38 % 3.66 C
808 20-04-2020 19:15:00 18.2 C 35 % 2.5 C
809 20-04-2020 19:20:00 17.9 C 36 % 2.63 C
810 20-04-2020 19:25:00 17.6 C 37 % 2.75 C
811 20-04-2020 19:30:00 17.4 C 37 % 2.58 C
812 20-04-2020 19:35:00 17.4 C 37 % 2.58 C
813 20-04-2020 19:40:00 17.2 C 36 % 2.02 C
814 20-04-2020 19:45:00 17 C 37 % 2.22 C
815 20-04-2020 19:50:00 16.8 C 36 % 1.66 C
816 20-04-2020 19:55:00 16.7 C 36 % 1.57 C
817 20-04-2020 20:00:00 16.5 C 38 % 2.15 C
818 20-04-2020 20:05:00 16.3 C 38 % 1.97 C
819 20-04-2020 20:10:00 16.1 C 38 % 1.79 C
820 20-04-2020 20:15:00 15.9 C 39 % 1.98 C
821 20-04-2020 20:20:00 15.7 C 40 % 2.15 C
822 20-04-2020 20:25:00 15.4 C 42 % 2.57 C
823 20-04-2020 20:30:00 15.1 C 42 % 2.3 C
824 20-04-2020 20:35:00 14.8 C 41 % 1.69 C
825 20-04-2020 20:40:00 14.7 C 40 % 1.26 C
Sensor: Nr:Datum:Temp:Feuchte:Taupunkt:
Aussen-T/F 826 20-04-2020 20:45:00 14.7 C 41 % 1.6 C
827 20-04-2020 20:50:00 14.6 C 42 % 1.85 C
828 20-04-2020 20:55:00 14.4 C 42 % 1.67 C
829 20-04-2020 21:00:00 14.2 C 42 % 1.49 C
830 20-04-2020 21:05:00 14.1 C 41 % 1.06 C
831 20-04-2020 21:10:00 13.9 C 43 % 1.54 C
832 20-04-2020 21:15:00 13.7 C 44 % 1.68 C
833 20-04-2020 21:20:00 13.4 C 45 % 1.72 C
834 20-04-2020 21:25:00 13.2 C 44 % 1.23 C
835 20-04-2020 21:30:00 13.1 C 47 % 2.06 C
836 20-04-2020 21:35:00 12.7 C 45 % 1.09 C
837 20-04-2020 21:40:00 12.6 C 46 % 1.3 C
838 20-04-2020 21:45:00 12.4 C 47 % 1.42 C
839 20-04-2020 21:50:00 12.6 C 45 % 1 C
840 20-04-2020 21:55:00 12.7 C 44 % 0.78 C
841 20-04-2020 22:00:00 12.7 C 47 % 1.69 C
842 20-04-2020 22:05:00 12.6 C 45 % 1 C
843 20-04-2020 22:10:00 12.6 C 45 % 1 C
844 20-04-2020 22:15:00 12.5 C 48 % 1.8 C
845 20-04-2020 22:20:00 12.3 C 47 % 1.33 C
846 20-04-2020 22:25:00 12.4 C 45 % 0.81 C
847 20-04-2020 22:30:00 12.4 C 45 % 0.81 C
848 20-04-2020 22:35:00 12.4 C 46 % 1.12 C
849 20-04-2020 22:40:00 12.4 C 45 % 0.81 C
850 20-04-2020 22:45:00 12.4 C 46 % 1.12 C
Sensor: Nr:Datum:Temp:Feuchte:Taupunkt:
Aussen-T/F 851 20-04-2020 22:50:00 12.2 C 47 % 1.24 C
852 20-04-2020 22:55:00 12 C 47 % 1.05 C
853 20-04-2020 23:00:00 11.9 C 46 % 0.66 C
854 20-04-2020 23:05:00 11.8 C 47 % 0.87 C
855 20-04-2020 23:10:00 11.8 C 46 % 0.57 C
856 20-04-2020 23:15:00 11.7 C 45 % 0.18 C
857 20-04-2020 23:20:00 11.8 C 48 % 1.16 C
858 20-04-2020 23:25:00 11.6 C 47 % 0.69 C
859 20-04-2020 23:30:00 11.6 C 46 % 0.39 C
860 20-04-2020 23:35:00 11.7 C 46 % 0.48 C
861 20-04-2020 23:40:00 11.7 C 45 % 0.18 C
862 20-04-2020 23:45:00 11.6 C 45 % 0.09 C
863 20-04-2020 23:50:00 11.6 C 47 % 0.69 C
864 20-04-2020 23:55:00 11.5 C 46 % 0.3 C
865 21-04-2020 00:00:00 11.4 C 47 % 0.5 C
866 21-04-2020 00:05:00 11.3 C 48 % 0.7 C
867 21-04-2020 00:10:00 11.1 C 48 % 0.52 C
868 21-04-2020 00:15:00 11.2 C 46 % 0.02 C
869 21-04-2020 00:20:00 11.2 C 47 % 0.32 C
870 21-04-2020 00:25:00 11.1 C 47 % 0.23 C
871 21-04-2020 00:30:00 10.9 C 50 % 0.9 C
872 21-04-2020 00:35:00 10.7 C 49 % 0.44 C
873 21-04-2020 00:40:00 10.6 C 48 % 0.06 C
874 21-04-2020 00:45:00 10.8 C 49 % 0.53 C
875 21-04-2020 00:50:00 10.8 C 50 % 0.81 C
Sensor: Nr:Datum:Temp:Feuchte:Taupunkt:
Aussen-T/F 876 21-04-2020 00:55:00 10.6 C 51 % 0.9 C
877 21-04-2020 01:00:00 10.3 C 51 % 0.62 C
878 21-04-2020 01:05:00 10 C 53 % 0.87 C
879 21-04-2020 01:10:00 9.8 C 54 % 0.95 C
880 21-04-2020 01:15:00 9.5 C 55 % 0.92 C
881 21-04-2020 01:20:00 9.3 C 55 % 0.74 C
882 21-04-2020 01:25:00 9.2 C 56 % 0.89 C
883 21-04-2020 01:30:00 9.3 C 56 % 0.99 C
884 21-04-2020 01:35:00 9.2 C 56 % 0.89 C
885 21-04-2020 01:40:00 9.1 C 57 % 1.04 C
886 21-04-2020 01:45:00 8.9 C 56 % 0.61 C
887 21-04-2020 01:50:00 8.9 C 57 % 0.86 C
888 21-04-2020 01:55:00 8.8 C 58 % 1 C
889 21-04-2020 02:00:00 8.8 C 55 % 0.27 C
890 21-04-2020 02:05:00 9.2 C 57 % 1.14 C
891 21-04-2020 02:10:00 9.2 C 57 % 1.14 C
892 21-04-2020 02:15:00 9.3 C 54 % 0.48 C
893 21-04-2020 02:20:00 9.4 C 55 % 0.83 C
894 21-04-2020 02:25:00 9.5 C 54 % 0.67 C
895 21-04-2020 02:30:00 9.5 C 54 % 0.67 C
896 21-04-2020 02:35:00 9.5 C 56 % 1.17 C
897 21-04-2020 02:40:00 9.5 C 55 % 0.92 C
898 21-04-2020 02:45:00 9.7 C 54 % 0.86 C
899 21-04-2020 02:50:00 9.7 C 53 % 0.6 C
900 21-04-2020 02:55:00 9.7 C 54 % 0.86 C
Sensor: Nr:Datum:Temp:Feuchte:Taupunkt:
Aussen-T/F 901 21-04-2020 03:00:00 9.7 C 52 % 0.33 C
902 21-04-2020 03:05:00 9.8 C 53 % 0.69 C
903 21-04-2020 03:10:00 9.8 C 54 % 0.95 C
904 21-04-2020 03:15:00 9.7 C 55 % 1.11 C
905 21-04-2020 03:20:00 9.6 C 53 % 0.5 C
906 21-04-2020 03:25:00 9.7 C 53 % 0.6 C
907 21-04-2020 03:30:00 9.7 C 55 % 1.11 C
908 21-04-2020 03:35:00 9.6 C 56 % 1.27 C
909 21-04-2020 03:40:00 9.4 C 57 % 1.33 C
910 21-04-2020 03:45:00 9.2 C 56 % 0.89 C
911 21-04-2020 03:50:00 9.1 C 55 % 0.55 C
912 21-04-2020 03:55:00 9.2 C 58 % 1.38 C
913 21-04-2020 04:00:00 9.1 C 58 % 1.29 C
914 21-04-2020 04:05:00 8.9 C 58 % 1.1 C
915 21-04-2020 04:10:00 8.8 C 59 % 1.24 C
916 21-04-2020 04:15:00 8.5 C 61 % 1.42 C
917 21-04-2020 04:20:00 8.3 C 61 % 1.23 C
918 21-04-2020 04:25:00 8.3 C 60 % 1 C
919 21-04-2020 04:30:00 8.3 C 60 % 1 C
920 21-04-2020 04:35:00 8.3 C 62 % 1.46 C
921 21-04-2020 04:40:00 8.2 C 61 % 1.14 C
922 21-04-2020 04:45:00 8.2 C 62 % 1.37 C
923 21-04-2020 04:50:00 8.1 C 62 % 1.27 C
924 21-04-2020 04:55:00 8.1 C 61 % 1.05 C
925 21-04-2020 05:00:00 8.1 C 63 % 1.49 C
Sensor: Nr:Datum:Temp:Feuchte:Taupunkt:
Aussen-T/F 926 21-04-2020 05:05:00 8.1 C 61 % 1.05 C
927 21-04-2020 05:10:00 8.2 C 61 % 1.14 C
928 21-04-2020 05:15:00 8.2 C 62 % 1.37 C
929 21-04-2020 05:20:00 8.1 C 62 % 1.27 C
930 21-04-2020 05:25:00 8.1 C 63 % 1.49 C
931 21-04-2020 05:30:00 7.9 C 63 % 1.3 C
932 21-04-2020 05:35:00 7.8 C 64 % 1.43 C
933 21-04-2020 05:40:00 7.6 C 66 % 1.67 C
934 21-04-2020 05:45:00 7.3 C 65 % 1.17 C
935 21-04-2020 05:50:00 7.3 C 66 % 1.38 C
936 21-04-2020 05:55:00 7.2 C 67 % 1.49 C
937 21-04-2020 06:00:00 7.1 C 67 % 1.4 C
938 21-04-2020 06:05:00 7.2 C 67 % 1.49 C
939 21-04-2020 06:10:00 7.2 C 67 % 1.49 C
940 21-04-2020 06:15:00 7.2 C 67 % 1.49 C
941 21-04-2020 06:20:00 7.2 C 66 % 1.29 C
942 21-04-2020 06:25:00 7.2 C 67 % 1.49 C
943 21-04-2020 06:30:00 7.1 C 68 % 1.61 C
944 21-04-2020 06:35:00 6.9 C 68 % 1.41 C
945 21-04-2020 06:40:00 6.8 C 68 % 1.32 C
946 21-04-2020 06:45:00 6.8 C 69 % 1.52 C
947 21-04-2020 06:50:00 6.8 C 69 % 1.52 C
948 21-04-2020 06:55:00 6.7 C 70 % 1.63 C
949 21-04-2020 07:00:00 6.7 C 70 % 1.63 C
950 21-04-2020 07:05:00 6.7 C 70 % 1.63 C
Sensor: Nr:Datum:Temp:Feuchte:Taupunkt:
Aussen-T/F 951 21-04-2020 07:10:00 6.7 C 70 % 1.63 C
952 21-04-2020 07:15:00 6.7 C 70 % 1.63 C
953 21-04-2020 07:20:00 6.8 C 70 % 1.72 C
954 21-04-2020 07:25:00 6.8 C 70 % 1.72 C
955 21-04-2020 07:30:00 6.9 C 69 % 1.62 C
956 21-04-2020 07:35:00 6.9 C 69 % 1.62 C
957 21-04-2020 07:40:00 7.2 C 67 % 1.49 C
958 21-04-2020 07:45:00 7.4 C 67 % 1.69 C
959 21-04-2020 07:50:00 7.4 C 68 % 1.89 C
960 21-04-2020 07:55:00 7.4 C 69 % 2.1 C
961 21-04-2020 08:00:00 7.4 C 67 % 1.69 C
962 21-04-2020 08:05:00 7.7 C 67 % 1.97 C
963 21-04-2020 08:10:00 7.8 C 67 % 2.07 C
964 21-04-2020 08:15:00 7.9 C 67 % 2.16 C
965 21-04-2020 08:20:00 8.1 C 65 % 1.93 C
966 21-04-2020 08:25:00 8.2 C 67 % 2.45 C
967 21-04-2020 08:30:00 8.1 C 67 % 2.35 C
968 21-04-2020 08:35:00 8.1 C 67 % 2.35 C
969 21-04-2020 08:40:00 8.1 C 68 % 2.56 C
970 21-04-2020 08:45:00 8.1 C 65 % 1.93 C
971 21-04-2020 08:50:00 8.3 C 62 % 1.46 C
972 21-04-2020 08:55:00 8.7 C 63 % 2.06 C
973 21-04-2020 09:00:00 8.9 C 63 % 2.25 C
974 21-04-2020 09:05:00 9.1 C 65 % 2.88 C
975 21-04-2020 09:10:00 9.3 C 62 % 2.4 C
Sensor: Nr:Datum:Temp:Feuchte:Taupunkt:
Aussen-T/F 976 21-04-2020 09:15:00 9.5 C 61 % 2.37 C
977 21-04-2020 09:20:00 9.7 C 57 % 1.61 C
978 21-04-2020 09:25:00 10 C 58 % 2.13 C
979 21-04-2020 09:30:00 10.2 C 55 % 1.58 C
980 21-04-2020 09:35:00 10.5 C 57 % 2.35 C
981 21-04-2020 09:40:00 10.7 C 54 % 1.78 C
982 21-04-2020 09:45:00 10.8 C 53 % 1.62 C
983 21-04-2020 09:50:00 11.1 C 53 % 1.9 C
984 21-04-2020 09:55:00 11.2 C 54 % 2.25 C
985 21-04-2020 10:00:00 11.3 C 54 % 2.34 C
986 21-04-2020 10:05:00 11.4 C 52 % 1.91 C
987 21-04-2020 10:10:00 11.7 C 53 % 2.45 C
988 21-04-2020 10:15:00 11.7 C 52 % 2.18 C
989 21-04-2020 10:20:00 11.9 C 49 % 1.54 C
990 21-04-2020 10:25:00 12.2 C 48 % 1.53 C
991 21-04-2020 10:30:00 12.5 C 48 % 1.8 C
992 21-04-2020 10:35:00 12.7 C 48 % 1.99 C
993 21-04-2020 10:40:00 12.8 C 46 % 1.48 C
994 21-04-2020 10:45:00 13.1 C 46 % 1.76 C
995 21-04-2020 10:50:00 13.3 C 47 % 2.24 C
996 21-04-2020 10:55:00 13.4 C 45 % 1.72 C
997 21-04-2020 11:00:00 13.6 C 44 % 1.59 C
998 21-04-2020 11:05:00 13.8 C 44 % 1.77 C
999 21-04-2020 11:10:00 14 C 45 % 2.27 C
1000 21-04-2020 11:15:00 14.2 C 43 % 1.81 C
Sensor: Nr:Datum:Temp:Feuchte:Taupunkt:
Aussen-T/F 1001 21-04-2020 11:20:00 14.4 C 42 % 1.67 C
1002 21-04-2020 11:25:00 14.5 C 43 % 2.09 C
1003 21-04-2020 11:30:00 14.6 C 42 % 1.85 C
1004 21-04-2020 11:35:00 14.7 C 42 % 1.94 C
1005 21-04-2020 11:40:00 14.8 C 42 % 2.03 C
1006 21-04-2020 11:45:00 15 C 41 % 1.87 C
1007 21-04-2020 11:50:00 15.2 C 41 % 2.05 C
1008 21-04-2020 11:55:00 15.4 C 40 % 1.89 C
1009 21-04-2020 12:00:00 15.6 C 41 % 2.41 C
1010 21-04-2020 12:05:00 15.7 C 40 % 2.15 C
1011 21-04-2020 12:10:00 15.8 C 38 % 1.53 C
1012 21-04-2020 12:15:00 15.9 C 38 % 1.62 C
1013 21-04-2020 12:20:00 16.1 C 37 % 1.42 C
1014 21-04-2020 12:25:00 16.1 C 38 % 1.79 C
1015 21-04-2020 12:30:00 16.2 C 37 % 1.51 C
1016 21-04-2020 12:35:00 16.3 C 37 % 1.6 C
1017 21-04-2020 12:40:00 16.3 C 37 % 1.6 C
1018 21-04-2020 12:45:00 16.4 C 37 % 1.69 C
1019 21-04-2020 12:50:00 16.6 C 37 % 1.87 C
1020 21-04-2020 12:55:00 16.7 C 37 % 1.96 C
1021 21-04-2020 13:00:00 16.8 C 36 % 1.66 C
1022 21-04-2020 13:05:00 16.9 C 36 % 1.75 C
1023 21-04-2020 13:10:00 17.1 C 36 % 1.93 C
1024 21-04-2020 13:15:00 17.2 C 36 % 2.02 C
1025 21-04-2020 13:20:00 17.2 C 35 % 1.62 C
Sensor: Nr:Datum:Temp:Feuchte:Taupunkt:
Aussen-T/F 1026 21-04-2020 13:25:00 17.3 C 36 % 2.1 C
1027 21-04-2020 13:30:00 17.4 C 36 % 2.19 C
1028 21-04-2020 13:35:00 17.4 C 35 % 1.8 C
1029 21-04-2020 13:40:00 17.7 C 35 % 2.06 C
1030 21-04-2020 13:45:00 17.8 C 34 % 1.75 C
1031 21-04-2020 13:50:00 17.9 C 33 % 1.42 C
1032 21-04-2020 13:55:00 18.1 C 34 % 2.01 C
1033 21-04-2020 14:00:00 18.3 C 34 % 2.19 C
1034 21-04-2020 14:05:00 18.4 C 33 % 1.86 C
1035 21-04-2020 14:10:00 18.5 C 33 % 1.94 C
1036 21-04-2020 14:15:00 18.7 C 32 % 1.69 C
1037 21-04-2020 14:20:00 18.8 C 33 % 2.21 C
1038 21-04-2020 14:25:00 18.8 C 32 % 1.78 C
1039 21-04-2020 14:30:00 18.9 C 32 % 1.86 C
1040 21-04-2020 14:35:00 19.1 C 33 % 2.47 C
1041 21-04-2020 14:40:00 19.3 C 32 % 2.21 C
1042 21-04-2020 14:45:00 19.4 C 32 % 2.3 C
1043 21-04-2020 14:50:00 19.6 C 32 % 2.47 C
1044 21-04-2020 14:55:00 19.7 C 31 % 2.12 C
1045 21-04-2020 15:00:00 19.8 C 31 % 2.2 C
1046 21-04-2020 15:05:00 19.9 C 31 % 2.29 C
1047 21-04-2020 15:10:00 20 C 30 % 1.92 C
1048 21-04-2020 15:15:00 19.9 C 31 % 2.29 C
1049 21-04-2020 15:20:00 20 C 31 % 2.38 C
1050 21-04-2020 15:25:00 20.1 C 31 % 2.46 C
Sensor: Nr:Datum:Temp:Feuchte:Taupunkt:
Aussen-T/F 1051 21-04-2020 15:30:00 20.2 C 31 % 2.55 C
1052 21-04-2020 15:35:00 20.3 C 30 % 2.18 C
1053 21-04-2020 15:40:00 20.5 C 31 % 2.81 C
1054 21-04-2020 15:45:00 20.7 C 31 % 2.98 C
1055 21-04-2020 15:50:00 20.6 C 30 % 2.44 C
1056 21-04-2020 15:55:00 20.6 C 30 % 2.44 C
1057 21-04-2020 16:00:00 20.5 C 30 % 2.35 C
1058 21-04-2020 16:05:00 20.7 C 31 % 2.98 C
1059 21-04-2020 16:10:00 20.7 C 30 % 2.52 C
1060 21-04-2020 16:15:00 20.7 C 31 % 2.98 C
1061 21-04-2020 16:20:00 20.7 C 30 % 2.52 C
1062 21-04-2020 16:25:00 20.7 C 31 % 2.98 C
1063 21-04-2020 16:30:00 20.8 C 30 % 2.61 C
1064 21-04-2020 16:35:00 20.9 C 31 % 3.16 C
1065 21-04-2020 16:40:00 21 C 29 % 2.31 C
1066 21-04-2020 16:45:00 21.1 C 30 % 2.87 C
1067 21-04-2020 16:50:00 20.9 C 29 % 2.22 C
1068 21-04-2020 16:55:00 21 C 31 % 3.24 C
1069 21-04-2020 17:00:00 21.1 C 30 % 2.87 C
1070 21-04-2020 17:05:00 21.3 C 30 % 3.04 C
1071 21-04-2020 17:10:00 21.5 C 31 % 3.68 C
1072 21-04-2020 17:15:00 21.8 C 30 % 3.47 C
1073 21-04-2020 17:20:00 21.7 C 29 % 2.91 C
1074 21-04-2020 17:25:00 21.2 C 30 % 2.95 C
1075 21-04-2020 17:30:00 20.9 C 30 % 2.69 C
Sensor: Nr:Datum:Temp:Feuchte:Taupunkt:
Aussen-T/F 1076 21-04-2020 17:35:00 20.7 C 31 % 2.98 C
1077 21-04-2020 17:40:00 20.8 C 32 % 3.52 C
1078 21-04-2020 17:45:00 20.8 C 31 % 3.07 C
1079 21-04-2020 17:50:00 20.8 C 32 % 3.52 C
1080 21-04-2020 17:55:00 21.1 C 32 % 3.78 C
1081 21-04-2020 18:00:00 20.8 C 31 % 3.07 C
1082 21-04-2020 18:05:00 20.8 C 31 % 3.07 C
1083 21-04-2020 18:10:00 21.1 C 32 % 3.78 C
1084 21-04-2020 18:15:00 21.2 C 31 % 3.42 C
1085 21-04-2020 18:20:00 20.9 C 32 % 3.61 C
1086 21-04-2020 18:25:00 20.8 C 32 % 3.52 C
1087 21-04-2020 18:30:00 20.7 C 32 % 3.43 C
1088 21-04-2020 18:35:00 20.7 C 32 % 3.43 C
1089 21-04-2020 18:40:00 20.7 C 33 % 3.87 C
1090 21-04-2020 18:45:00 20.7 C 33 % 3.87 C
1091 21-04-2020 18:50:00 20.8 C 33 % 3.95 C
1092 21-04-2020 18:55:00 20.9 C 33 % 4.04 C
1093 21-04-2020 19:00:00 20.7 C 33 % 3.87 C
1094 21-04-2020 19:05:00 20.4 C 33 % 3.6 C
1095 21-04-2020 19:10:00 20.1 C 33 % 3.34 C
1096 21-04-2020 19:15:00 20 C 34 % 3.68 C
1097 21-04-2020 19:20:00 19.9 C 35 % 4 C
1098 21-04-2020 19:25:00 19.7 C 35 % 3.82 C
1099 21-04-2020 19:30:00 19.5 C 35 % 3.65 C
1100 21-04-2020 19:35:00 19.3 C 35 % 3.47 C
Sensor: Nr:Datum:Temp:Feuchte:Taupunkt:
Aussen-T/F 1101 21-04-2020 19:40:00 19.1 C 35 % 3.3 C
1102 21-04-2020 19:45:00 18.8 C 36 % 3.43 C
1103 21-04-2020 19:50:00 18.8 C 36 % 3.43 C
1104 21-04-2020 19:55:00 18.7 C 39 % 4.48 C
1105 21-04-2020 20:00:00 18.5 C 37 % 3.55 C
1106 21-04-2020 20:05:00 18.3 C 37 % 3.38 C
1107 21-04-2020 20:10:00 18.2 C 39 % 4.03 C
1108 21-04-2020 20:15:00 17.9 C 39 % 3.76 C
1109 21-04-2020 20:20:00 17.6 C 39 % 3.5 C
1110 21-04-2020 20:25:00 17.3 C 40 % 3.59 C
1111 21-04-2020 20:30:00 17.1 C 40 % 3.41 C
1112 21-04-2020 20:35:00 16.8 C 43 % 4.16 C
1113 21-04-2020 20:40:00 16.6 C 42 % 3.65 C
1114 21-04-2020 20:45:00 16.3 C 43 % 3.71 C
1115 21-04-2020 20:50:00 16 C 45 % 4.09 C
1116 21-04-2020 20:55:00 15.6 C 45 % 3.72 C
1117 21-04-2020 21:00:00 15.3 C 47 % 4.07 C
1118 21-04-2020 21:05:00 15.1 C 45 % 3.27 C
1119 21-04-2020 21:10:00 14.9 C 45 % 3.09 C
1120 21-04-2020 21:15:00 14.9 C 48 % 4 C
1121 21-04-2020 21:20:00 14.8 C 47 % 3.61 C
1122 21-04-2020 21:25:00 14.7 C 48 % 3.82 C
1123 21-04-2020 21:30:00 14.4 C 47 % 3.25 C
1124 21-04-2020 21:35:00 14.4 C 47 % 3.25 C
1125 21-04-2020 21:40:00 14.4 C 50 % 4.12 C
Sensor: Nr:Datum:Temp:Feuchte:Taupunkt:
Aussen-T/F 1126 21-04-2020 21:45:00 14.2 C 50 % 3.94 C
1127 21-04-2020 21:50:00 13.8 C 51 % 3.85 C
1128 21-04-2020 21:55:00 13.6 C 50 % 3.39 C
1129 21-04-2020 22:00:00 13.6 C 52 % 3.94 C
1130 21-04-2020 22:05:00 13.4 C 52 % 3.76 C
1131 21-04-2020 22:10:00 13.1 C 54 % 4.01 C
1132 21-04-2020 22:15:00 13.2 C 52 % 3.57 C
1133 21-04-2020 22:20:00 13.4 C 51 % 3.48 C
1134 21-04-2020 22:25:00 13.5 C 52 % 3.85 C
1135 21-04-2020 22:30:00 13.3 C 51 % 3.39 C
1136 21-04-2020 22:35:00 13.2 C 53 % 3.84 C
1137 21-04-2020 22:40:00 12.9 C 53 % 3.56 C
1138 21-04-2020 22:45:00 12.6 C 55 % 3.81 C
1139 21-04-2020 22:50:00 12.4 C 56 % 3.88 C
1140 21-04-2020 22:55:00 12.3 C 56 % 3.79 C
1141 21-04-2020 23:00:00 12.2 C 56 % 3.69 C
1142 21-04-2020 23:05:00 12.2 C 56 % 3.69 C
1143 21-04-2020 23:10:00 12.2 C 55 % 3.44 C
1144 21-04-2020 23:15:00 12.2 C 57 % 3.94 C
1145 21-04-2020 23:20:00 12 C 57 % 3.76 C
1146 21-04-2020 23:25:00 12 C 57 % 3.76 C
1147 21-04-2020 23:30:00 11.9 C 57 % 3.66 C
1148 21-04-2020 23:35:00 11.8 C 57 % 3.57 C
1149 21-04-2020 23:40:00 11.7 C 58 % 3.72 C
1150 21-04-2020 23:45:00 11.6 C 58 % 3.63 C
Sensor: Nr:Datum:Temp:Feuchte:Taupunkt:
Aussen-T/F 1151 21-04-2020 23:50:00 11.6 C 58 % 3.63 C
1152 21-04-2020 23:55:00 11.5 C 58 % 3.54 C
1153 22-04-2020 00:00:00 11.4 C 58 % 3.44 C
1154 22-04-2020 00:05:00 11.3 C 58 % 3.35 C
1155 22-04-2020 00:10:00 11.2 C 60 % 3.73 C
1156 22-04-2020 00:15:00 11.1 C 59 % 3.4 C
1157 22-04-2020 00:20:00 11 C 58 % 3.07 C
1158 22-04-2020 00:25:00 11.2 C 58 % 3.25 C
1159 22-04-2020 00:30:00 11.4 C 59 % 3.68 C
1160 22-04-2020 00:35:00 11.4 C 58 % 3.44 C
1161 22-04-2020 00:40:00 11.4 C 57 % 3.2 C
1162 22-04-2020 00:45:00 11.4 C 59 % 3.68 C
1163 22-04-2020 00:50:00 11.3 C 59 % 3.59 C
1164 22-04-2020 00:55:00 11.3 C 57 % 3.1 C
1165 22-04-2020 01:00:00 11.3 C 58 % 3.35 C
1166 22-04-2020 01:05:00 11.2 C 58 % 3.25 C
1167 22-04-2020 01:10:00 11.1 C 59 % 3.4 C
1168 22-04-2020 01:15:00 10.9 C 60 % 3.45 C
1169 22-04-2020 01:20:00 10.7 C 61 % 3.5 C
1170 22-04-2020 01:25:00 10.4 C 62 % 3.44 C
1171 22-04-2020 01:30:00 10.2 C 62 % 3.25 C
1172 22-04-2020 01:35:00 10.1 C 63 % 3.39 C
1173 22-04-2020 01:40:00 10.1 C 63 % 3.39 C
1174 22-04-2020 01:45:00 10.1 C 63 % 3.39 C
1175 22-04-2020 01:50:00 10.1 C 63 % 3.39 C
Sensor: Nr:Datum:Temp:Feuchte:Taupunkt:
Aussen-T/F 1176 22-04-2020 01:55:00 10.2 C 63 % 3.48 C
1177 22-04-2020 02:00:00 10.3 C 62 % 3.35 C
1178 22-04-2020 02:05:00 10.3 C 62 % 3.35 C
1179 22-04-2020 02:10:00 10.2 C 62 % 3.25 C
1180 22-04-2020 02:15:00 10.2 C 63 % 3.48 C
1181 22-04-2020 02:20:00 10.1 C 63 % 3.39 C
1182 22-04-2020 02:25:00 9.9 C 63 % 3.2 C
1183 22-04-2020 02:30:00 9.8 C 64 % 3.32 C
1184 22-04-2020 02:35:00 9.8 C 63 % 3.1 C
1185 22-04-2020 02:40:00 9.8 C 64 % 3.32 C
1186 22-04-2020 02:45:00 9.9 C 63 % 3.2 C
1187 22-04-2020 02:50:00 9.8 C 64 % 3.32 C
1188 22-04-2020 02:55:00 9.7 C 64 % 3.23 C
1189 22-04-2020 03:00:00 9.6 C 64 % 3.14 C
1190 22-04-2020 03:05:00 9.6 C 64 % 3.14 C
1191 22-04-2020 03:10:00 9.5 C 65 % 3.26 C
1192 22-04-2020 03:15:00 9.5 C 65 % 3.26 C
1193 22-04-2020 03:20:00 9.5 C 65 % 3.26 C
1194 22-04-2020 03:25:00 9.4 C 65 % 3.16 C
1195 22-04-2020 03:30:00 9.3 C 65 % 3.07 C
1196 22-04-2020 03:35:00 9.2 C 66 % 3.19 C
1197 22-04-2020 03:40:00 9.1 C 67 % 3.31 C
1198 22-04-2020 03:45:00 8.9 C 67 % 3.12 C
1199 22-04-2020 03:50:00 8.8 C 67 % 3.02 C
1200 22-04-2020 03:55:00 8.7 C 68 % 3.13 C
Sensor: Nr:Datum:Temp:Feuchte:Taupunkt:
Aussen-T/F 1201 22-04-2020 04:00:00 8.7 C 67 % 2.92 C
1202 22-04-2020 04:05:00 8.7 C 68 % 3.13 C
1203 22-04-2020 04:10:00 8.7 C 67 % 2.92 C
1204 22-04-2020 04:15:00 8.6 C 68 % 3.04 C
1205 22-04-2020 04:20:00 8.5 C 68 % 2.94 C
1206 22-04-2020 04:25:00 8.4 C 68 % 2.85 C
1207 22-04-2020 04:30:00 8.4 C 68 % 2.85 C
1208 22-04-2020 04:35:00 8.3 C 68 % 2.75 C
1209 22-04-2020 04:40:00 8.3 C 68 % 2.75 C
1210 22-04-2020 04:45:00 8.2 C 69 % 2.86 C
1211 22-04-2020 04:50:00 8.1 C 69 % 2.77 C
1212 22-04-2020 04:55:00 8.1 C 69 % 2.77 C
1213 22-04-2020 05:00:00 7.9 C 70 % 2.78 C
1214 22-04-2020 05:05:00 7.8 C 70 % 2.68 C
1215 22-04-2020 05:10:00 7.8 C 71 % 2.88 C
1216 22-04-2020 05:15:00 7.7 C 71 % 2.78 C
1217 22-04-2020 05:20:00 7.6 C 71 % 2.69 C
1218 22-04-2020 05:25:00 7.5 C 71 % 2.59 C
1219 22-04-2020 05:30:00 7.4 C 72 % 2.69 C
1220 22-04-2020 05:35:00 7.3 C 72 % 2.6 C
1221 22-04-2020 05:40:00 7.3 C 72 % 2.6 C
1222 22-04-2020 05:45:00 7.2 C 72 % 2.5 C
1223 22-04-2020 05:50:00 7.2 C 73 % 2.69 C
1224 22-04-2020 05:55:00 7.2 C 72 % 2.5 C
1225 22-04-2020 06:00:00 7.1 C 73 % 2.6 C
Sensor: Nr:Datum:Temp:Feuchte:Taupunkt:
Aussen-T/F 1226 22-04-2020 06:05:00 7 C 73 % 2.5 C
1227 22-04-2020 06:10:00 6.9 C 73 % 2.4 C
1228 22-04-2020 06:15:00 6.8 C 73 % 2.31 C
1229 22-04-2020 06:20:00 6.7 C 74 % 2.4 C
1230 22-04-2020 06:25:00 6.6 C 75 % 2.49 C
1231 22-04-2020 06:30:00 6.5 C 75 % 2.4 C
1232 22-04-2020 06:35:00 6.4 C 75 % 2.3 C
1233 22-04-2020 06:40:00 6.3 C 76 % 2.39 C
1234 22-04-2020 06:45:00 6.2 C 77 % 2.48 C
1235 22-04-2020 06:50:00 6.2 C 78 % 2.66 C
1236 22-04-2020 06:55:00 6.2 C 78 % 2.66 C
1237 22-04-2020 07:00:00 6.2 C 78 % 2.66 C
1238 22-04-2020 07:05:00 6.2 C 78 % 2.66 C
1239 22-04-2020 07:10:00 6.1 C 79 % 2.74 C
1240 22-04-2020 07:15:00 6.2 C 79 % 2.84 C
1241 22-04-2020 07:20:00 6.1 C 79 % 2.74 C
1242 22-04-2020 07:25:00 6.2 C 79 % 2.84 C
1243 22-04-2020 07:30:00 6.2 C 80 % 3.01 C
1244 22-04-2020 07:35:00 6.2 C 80 % 3.01 C
1245 22-04-2020 07:40:00 6.2 C 80 % 3.01 C
1246 22-04-2020 07:45:00 6.2 C 80 % 3.01 C
1247 22-04-2020 07:50:00 6.2 C 80 % 3.01 C
1248 22-04-2020 07:55:00 6.3 C 80 % 3.11 C
1249 22-04-2020 08:00:00 6.4 C 79 % 3.03 C
1250 22-04-2020 08:05:00 6.6 C 79 % 3.23 C
Sensor: Nr:Datum:Temp:Feuchte:Taupunkt:
Aussen-T/F 1251 22-04-2020 08:10:00 6.7 C 79 % 3.32 C
1252 22-04-2020 08:15:00 6.8 C 79 % 3.42 C
1253 22-04-2020 08:20:00 6.9 C 79 % 3.52 C
1254 22-04-2020 08:25:00 7.1 C 78 % 3.53 C
1255 22-04-2020 08:30:00 7.2 C 78 % 3.63 C
1256 22-04-2020 08:35:00 7.6 C 74 % 3.27 C
1257 22-04-2020 08:40:00 8 C 74 % 3.66 C
1258 22-04-2020 08:45:00 8.2 C 74 % 3.85 C
1259 22-04-2020 08:50:00 8.3 C 73 % 3.75 C
1260 22-04-2020 08:55:00 8.5 C 69 % 3.15 C
1261 22-04-2020 09:00:00 9.1 C 69 % 3.72 C
1262 22-04-2020 09:05:00 9.4 C 66 % 3.38 C
1263 22-04-2020 09:10:00 9.6 C 67 % 3.78 C
1264 22-04-2020 09:15:00 9.7 C 66 % 3.67 C
1265 22-04-2020 09:20:00 9.9 C 62 % 2.97 C
1266 22-04-2020 09:25:00 10.4 C 63 % 3.67 C
1267 22-04-2020 09:30:00 10.7 C 62 % 3.73 C
1268 22-04-2020 09:35:00 10.8 C 61 % 3.59 C
1269 22-04-2020 09:40:00 10.9 C 61 % 3.69 C
1270 22-04-2020 09:45:00 11.1 C 58 % 3.16 C
1271 22-04-2020 09:50:00 11.3 C 57 % 3.1 C
1272 22-04-2020 09:55:00 11.5 C 59 % 3.78 C
1273 22-04-2020 10:00:00 11.6 C 56 % 3.13 C
1274 22-04-2020 10:05:00 11.8 C 58 % 3.82 C
1275 22-04-2020 10:10:00 12.1 C 55 % 3.34 C
Sensor: Nr:Datum:Temp:Feuchte:Taupunkt:
Aussen-T/F 1276 22-04-2020 10:15:00 12.4 C 56 % 3.88 C
1277 22-04-2020 10:20:00 12.8 C 50 % 2.65 C
1278 22-04-2020 10:25:00 13.1 C 53 % 3.75 C
1279 22-04-2020 10:30:00 13.2 C 52 % 3.57 C
1280 22-04-2020 10:35:00 13.5 C 50 % 3.29 C
1281 22-04-2020 10:40:00 13.7 C 49 % 3.19 C
1282 22-04-2020 10:45:00 14 C 48 % 3.18 C
1283 22-04-2020 10:50:00 14.3 C 46 % 2.85 C
1284 22-04-2020 10:55:00 14.6 C 46 % 3.12 C
1285 22-04-2020 11:00:00 14.8 C 44 % 2.68 C
1286 22-04-2020 11:05:00 15.1 C 44 % 2.95 C
1287 22-04-2020 11:10:00 15.3 C 44 % 3.13 C
1288 22-04-2020 11:15:00 15.4 C 44 % 3.22 C
1289 22-04-2020 11:20:00 15.7 C 43 % 3.17 C
1290 22-04-2020 11:25:00 15.8 C 43 % 3.26 C
1291 22-04-2020 11:30:00 15.9 C 43 % 3.35 C
1292 22-04-2020 11:35:00 16.1 C 40 % 2.51 C
1293 22-04-2020 11:40:00 16.3 C 40 % 2.69 C
1294 22-04-2020 11:45:00 16.6 C 41 % 3.31 C
1295 22-04-2020 11:50:00 16.7 C 39 % 2.69 C
1296 22-04-2020 11:55:00 16.8 C 39 % 2.78 C
1297 22-04-2020 12:00:00 17 C 38 % 2.6 C
1298 22-04-2020 12:05:00 17.2 C 37 % 2.4 C
1299 22-04-2020 12:10:00 17.3 C 37 % 2.49 C
1300 22-04-2020 12:15:00 17.5 C 37 % 2.67 C
Sensor: Nr:Datum:Temp:Feuchte:Taupunkt:
Aussen-T/F 1301 22-04-2020 12:20:00 17.7 C 36 % 2.46 C
1302 22-04-2020 12:25:00 17.8 C 36 % 2.55 C
1303 22-04-2020 12:30:00 17.9 C 34 % 1.83 C
1304 22-04-2020 12:35:00 17.8 C 35 % 2.15 C
1305 22-04-2020 12:40:00 17.8 C 34 % 1.75 C
1306 22-04-2020 12:45:00 17.8 C 34 % 1.75 C
1307 22-04-2020 12:50:00 17.9 C 35 % 2.24 C
1308 22-04-2020 12:55:00 18.1 C 34 % 2.01 C
1309 22-04-2020 13:00:00 18.2 C 35 % 2.5 C
1310 22-04-2020 13:05:00 18.4 C 35 % 2.68 C
1311 22-04-2020 13:10:00 18.6 C 34 % 2.45 C
1312 22-04-2020 13:15:00 18.8 C 35 % 3.03 C
1313 22-04-2020 13:20:00 18.8 C 34 % 2.62 C
1314 22-04-2020 13:25:00 18.9 C 36 % 3.52 C
1315 22-04-2020 13:30:00 19 C 35 % 3.21 C
1316 22-04-2020 13:35:00 19.1 C 34 % 2.89 C
1317 22-04-2020 13:40:00 19.2 C 33 % 2.56 C
1318 22-04-2020 13:45:00 19.3 C 33 % 2.64 C
1319 22-04-2020 13:50:00 19.4 C 33 % 2.73 C
1320 22-04-2020 13:55:00 19.5 C 33 % 2.82 C
1321 22-04-2020 14:00:00 19.6 C 33 % 2.91 C
1322 22-04-2020 14:05:00 19.7 C 34 % 3.41 C
1323 22-04-2020 14:10:00 19.8 C 35 % 3.91 C
1324 22-04-2020 14:15:00 20 C 33 % 3.26 C
1325 22-04-2020 14:20:00 20 C 33 % 3.26 C
Sensor: Nr:Datum:Temp:Feuchte:Taupunkt:
Aussen-T/F 1326 22-04-2020 14:25:00 20.1 C 33 % 3.34 C
1327 22-04-2020 14:30:00 20.3 C 33 % 3.52 C
1328 22-04-2020 14:35:00 20.4 C 32 % 3.17 C
1329 22-04-2020 14:40:00 20.4 C 32 % 3.17 C
1330 22-04-2020 14:45:00 20.6 C 32 % 3.34 C
1331 22-04-2020 14:50:00 20.6 C 31 % 2.9 C
1332 22-04-2020 14:55:00 20.7 C 33 % 3.87 C
1333 22-04-2020 15:00:00 20.8 C 31 % 3.07 C
1334 22-04-2020 15:05:00 20.9 C 32 % 3.61 C
1335 22-04-2020 15:10:00 21.1 C 31 % 3.33 C
1336 22-04-2020 15:15:00 21.1 C 31 % 3.33 C
1337 22-04-2020 15:20:00 21.2 C 31 % 3.42 C
1338 22-04-2020 15:25:00 21.3 C 31 % 3.5 C
1339 22-04-2020 15:30:00 21.4 C 31 % 3.59 C
1340 22-04-2020 15:35:00 21.7 C 30 % 3.39 C
1341 22-04-2020 15:40:00 21.7 C 31 % 3.85 C
1342 22-04-2020 15:45:00 21.7 C 30 % 3.39 C
1343 22-04-2020 15:50:00 21.9 C 30 % 3.56 C
1344 22-04-2020 15:55:00 22.1 C 29 % 3.25 C
1345 22-04-2020 16:00:00 22.2 C 30 % 3.82 C
1346 22-04-2020 16:05:00 22.2 C 29 % 3.34 C
1347 22-04-2020 16:10:00 22.2 C 29 % 3.34 C
1348 22-04-2020 16:15:00 22.3 C 29 % 3.42 C
1349 22-04-2020 16:20:00 22.6 C 30 % 4.16 C
1350 22-04-2020 16:25:00 22.7 C 29 % 3.77 C
Sensor: Nr:Datum:Temp:Feuchte:Taupunkt:
Aussen-T/F 1351 22-04-2020 16:30:00 22.9 C 29 % 3.94 C
1352 22-04-2020 16:35:00 23.1 C 27 % 3.1 C
1353 22-04-2020 16:40:00 22.8 C 28 % 3.36 C
1354 22-04-2020 16:45:00 22.5 C 28 % 3.1 C
1355 22-04-2020 16:50:00 22.6 C 28 % 3.19 C
1356 22-04-2020 16:55:00 22.8 C 29 % 3.85 C
1357 22-04-2020 17:00:00 22.9 C 28 % 3.44 C
1358 22-04-2020 17:05:00 22.7 C 28 % 3.27 C
1359 22-04-2020 17:10:00 22.5 C 29 % 3.6 C
1360 22-04-2020 17:15:00 22.4 C 28 % 3.01 C
1361 22-04-2020 17:20:00 22.3 C 28 % 2.93 C
1362 22-04-2020 17:25:00 22.3 C 29 % 3.42 C
1363 22-04-2020 17:30:00 22.6 C 29 % 3.68 C
1364 22-04-2020 17:35:00 22.8 C 28 % 3.36 C
1365 22-04-2020 17:40:00 22.9 C 28 % 3.44 C
1366 22-04-2020 17:45:00 23 C 28 % 3.53 C
1367 22-04-2020 17:50:00 22.8 C 28 % 3.36 C
1368 22-04-2020 17:55:00 22.7 C 28 % 3.27 C
1369 22-04-2020 18:00:00 22.7 C 28 % 3.27 C
1370 22-04-2020 18:05:00 22.7 C 28 % 3.27 C
1371 22-04-2020 18:10:00 22.6 C 28 % 3.19 C
1372 22-04-2020 18:15:00 22.4 C 28 % 3.01 C
1373 22-04-2020 18:20:00 22.2 C 28 % 2.84 C
1374 22-04-2020 18:25:00 22.2 C 28 % 2.84 C
1375 22-04-2020 18:30:00 22.3 C 29 % 3.42 C
Sensor: Nr:Datum:Temp:Feuchte:Taupunkt:
Aussen-T/F 1376 22-04-2020 18:35:00 22.3 C 28 % 2.93 C
1377 22-04-2020 18:40:00 22.3 C 29 % 3.42 C
1378 22-04-2020 18:45:00 22.4 C 28 % 3.01 C
1379 22-04-2020 18:50:00 22.3 C 28 % 2.93 C
1380 22-04-2020 18:55:00 22.2 C 28 % 2.84 C
1381 22-04-2020 19:00:00 22.2 C 28 % 2.84 C
1382 22-04-2020 19:05:00 21.8 C 30 % 3.47 C
1383 22-04-2020 19:10:00 21.8 C 30 % 3.47 C
1384 22-04-2020 19:15:00 21.8 C 29 % 2.99 C
1385 22-04-2020 19:20:00 21.7 C 29 % 2.91 C
1386 22-04-2020 19:25:00 21.4 C 30 % 3.13 C
1387 22-04-2020 19:30:00 21.2 C 30 % 2.95 C
1388 22-04-2020 19:35:00 20.9 C 30 % 2.69 C
1389 22-04-2020 19:40:00 20.8 C 30 % 2.61 C
1390 22-04-2020 19:45:00 20.7 C 31 % 2.98 C
1391 22-04-2020 19:50:00 20.6 C 32 % 3.34 C
1392 22-04-2020 19:55:00 20.4 C 31 % 2.72 C
1393 22-04-2020 20:00:00 20.3 C 33 % 3.52 C
1394 22-04-2020 20:05:00 20.3 C 33 % 3.52 C
1395 22-04-2020 20:10:00 20.1 C 36 % 4.58 C
1396 22-04-2020 20:15:00 19.7 C 38 % 5 C
1397 22-04-2020 20:20:00 19.2 C 35 % 3.38 C
1398 22-04-2020 20:25:00 18.7 C 38 % 4.11 C
1399 22-04-2020 20:30:00 18.1 C 40 % 4.3 C
1400 22-04-2020 20:35:00 17.4 C 38 % 2.95 C
Sensor: Nr:Datum:Temp:Feuchte:Taupunkt:
Aussen-T/F 1401 22-04-2020 20:40:00 17.2 C 42 % 4.19 C
1402 22-04-2020 20:45:00 16.8 C 43 % 4.16 C
1403 22-04-2020 20:50:00 16.5 C 43 % 3.89 C
1404 22-04-2020 20:55:00 16.3 C 42 % 3.38 C
1405 22-04-2020 21:00:00 16.1 C 41 % 2.86 C
1406 22-04-2020 21:05:00 16.1 C 44 % 3.86 C
1407 22-04-2020 21:10:00 15.8 C 44 % 3.59 C
1408 22-04-2020 21:15:00 15.6 C 46 % 4.03 C
1409 22-04-2020 21:20:00 15.2 C 46 % 3.67 C
1410 22-04-2020 21:25:00 14.9 C 46 % 3.4 C
1411 22-04-2020 21:30:00 14.7 C 48 % 3.82 C
1412 22-04-2020 21:35:00 14.4 C 49 % 3.83 C
1413 22-04-2020 21:40:00 14.3 C 50 % 4.03 C
1414 22-04-2020 21:45:00 14.2 C 50 % 3.94 C
1415 22-04-2020 21:50:00 14.2 C 50 % 3.94 C
1416 22-04-2020 21:55:00 14.1 C 51 % 4.13 C
1417 22-04-2020 22:00:00 14 C 51 % 4.04 C
1418 22-04-2020 22:05:00 13.8 C 51 % 3.85 C
1419 22-04-2020 22:10:00 13.7 C 50 % 3.48 C
1420 22-04-2020 22:15:00 13.7 C 52 % 4.03 C
1421 22-04-2020 22:20:00 13.7 C 51 % 3.76 C
1422 22-04-2020 22:25:00 13.8 C 51 % 3.85 C
1423 22-04-2020 22:30:00 13.9 C 52 % 4.22 C
1424 22-04-2020 22:35:00 13.9 C 52 % 4.22 C
1425 22-04-2020 22:40:00 13.8 C 49 % 3.28 C
Sensor: Nr:Datum:Temp:Feuchte:Taupunkt:
Aussen-T/F 1426 22-04-2020 22:45:00 13.8 C 51 % 3.85 C
1427 22-04-2020 22:50:00 13.8 C 51 % 3.85 C
1428 22-04-2020 22:55:00 13.9 C 51 % 3.94 C
1429 22-04-2020 23:00:00 13.8 C 52 % 4.13 C
1430 22-04-2020 23:05:00 13.8 C 51 % 3.85 C
1431 22-04-2020 23:10:00 14 C 52 % 4.31 C
1432 22-04-2020 23:15:00 13.9 C 49 % 3.38 C
1433 22-04-2020 23:20:00 14 C 51 % 4.04 C
1434 22-04-2020 23:25:00 13.9 C 51 % 3.94 C
1435 22-04-2020 23:30:00 13.8 C 51 % 3.85 C
1436 22-04-2020 23:35:00 13.7 C 51 % 3.76 C
1437 22-04-2020 23:40:00 13.6 C 53 % 4.21 C
1438 22-04-2020 23:45:00 13.6 C 51 % 3.67 C
1439 22-04-2020 23:50:00 13.5 C 52 % 3.85 C
1440 22-04-2020 23:55:00 13.3 C 53 % 3.93 C
1441 23-04-2020 00:00:00 13.1 C 53 % 3.75 C
1442 23-04-2020 00:05:00 13 C 55 % 4.18 C
1443 23-04-2020 00:10:00 12.9 C 55 % 4.09 C
1444 23-04-2020 00:15:00 12.9 C 54 % 3.83 C
1445 23-04-2020 00:20:00 12.8 C 54 % 3.74 C
1446 23-04-2020 00:25:00 12.8 C 54 % 3.74 C
1447 23-04-2020 00:30:00 12.8 C 55 % 4 C
1448 23-04-2020 00:35:00 12.8 C 55 % 4 C
1449 23-04-2020 00:40:00 12.9 C 55 % 4.09 C
1450 23-04-2020 00:45:00 12.8 C 55 % 4 C
Sensor: Nr:Datum:Temp:Feuchte:Taupunkt:
Aussen-T/F 1451 23-04-2020 00:50:00 12.7 C 54 % 3.64 C
1452 23-04-2020 00:55:00 12.7 C 55 % 3.9 C
1453 23-04-2020 01:00:00 12.6 C 56 % 4.07 C
1454 23-04-2020 01:05:00 12.6 C 55 % 3.81 C
1455 23-04-2020 01:10:00 12.6 C 56 % 4.07 C
1456 23-04-2020 01:15:00 12.4 C 56 % 3.88 C
1457 23-04-2020 01:20:00 12.2 C 57 % 3.94 C
1458 23-04-2020 01:25:00 12.1 C 56 % 3.6 C
1459 23-04-2020 01:30:00 12.1 C 56 % 3.6 C
1460 23-04-2020 01:35:00 12.2 C 58 % 4.19 C
1461 23-04-2020 01:40:00 11.9 C 58 % 3.91 C
1462 23-04-2020 01:45:00 11.7 C 59 % 3.97 C
1463 23-04-2020 01:50:00 11.4 C 60 % 3.92 C
1464 23-04-2020 01:55:00 11.2 C 61 % 3.97 C
1465 23-04-2020 02:00:00 11 C 62 % 4.01 C
1466 23-04-2020 02:05:00 10.7 C 62 % 3.73 C
1467 23-04-2020 02:10:00 10.5 C 63 % 3.77 C
1468 23-04-2020 02:15:00 10.3 C 64 % 3.8 C
1469 23-04-2020 02:20:00 10.2 C 65 % 3.92 C
1470 23-04-2020 02:25:00 10.2 C 65 % 3.92 C
1471 23-04-2020 02:30:00 10.3 C 64 % 3.8 C
1472 23-04-2020 02:35:00 10.4 C 64 % 3.89 C
1473 23-04-2020 02:40:00 10.4 C 64 % 3.89 C
1474 23-04-2020 02:45:00 10.3 C 65 % 4.02 C
1475 23-04-2020 02:50:00 10.1 C 65 % 3.83 C
Sensor: Nr:Datum:Temp:Feuchte:Taupunkt:
Aussen-T/F 1476 23-04-2020 02:55:00 9.9 C 65 % 3.64 C
1477 23-04-2020 03:00:00 9.9 C 66 % 3.86 C
1478 23-04-2020 03:05:00 9.8 C 66 % 3.76 C
1479 23-04-2020 03:10:00 9.7 C 67 % 3.88 C
1480 23-04-2020 03:15:00 9.7 C 67 % 3.88 C
1481 23-04-2020 03:20:00 9.6 C 67 % 3.78 C
1482 23-04-2020 03:25:00 9.5 C 67 % 3.69 C
1483 23-04-2020 03:30:00 9.4 C 68 % 3.8 C
1484 23-04-2020 03:35:00 9.4 C 68 % 3.8 C
1485 23-04-2020 03:40:00 9.3 C 68 % 3.71 C
1486 23-04-2020 03:45:00 9.3 C 68 % 3.71 C
1487 23-04-2020 03:50:00 9.3 C 67 % 3.5 C
1488 23-04-2020 03:55:00 9.3 C 68 % 3.71 C
1489 23-04-2020 04:00:00 9.2 C 68 % 3.61 C
1490 23-04-2020 04:05:00 9.1 C 68 % 3.52 C
1491 23-04-2020 04:10:00 8.9 C 69 % 3.53 C
1492 23-04-2020 04:15:00 8.8 C 69 % 3.44 C
1493 23-04-2020 04:20:00 8.6 C 70 % 3.45 C
1494 23-04-2020 04:25:00 8.4 C 71 % 3.46 C
1495 23-04-2020 04:30:00 8.3 C 72 % 3.56 C
1496 23-04-2020 04:35:00 8.1 C 73 % 3.56 C
1497 23-04-2020 04:40:00 7.9 C 73 % 3.37 C
1498 23-04-2020 04:45:00 7.8 C 74 % 3.46 C
1499 23-04-2020 04:50:00 7.8 C 74 % 3.46 C
1500 23-04-2020 04:55:00 7.8 C 75 % 3.65 C
Sensor: Nr:Datum:Temp:Feuchte:Taupunkt:
Aussen-T/F 1501 23-04-2020 05:00:00 7.6 C 75 % 3.46 C
1502 23-04-2020 05:05:00 7.4 C 75 % 3.27 C
1503 23-04-2020 05:10:00 7.3 C 76 % 3.36 C
1504 23-04-2020 05:15:00 7.2 C 76 % 3.26 C
1505 23-04-2020 05:20:00 7.1 C 77 % 3.35 C
1506 23-04-2020 05:25:00 6.9 C 77 % 3.16 C
1507 23-04-2020 05:30:00 6.8 C 78 % 3.24 C
1508 23-04-2020 05:35:00 6.7 C 78 % 3.14 C
1509 23-04-2020 05:40:00 6.7 C 78 % 3.14 C
1510 23-04-2020 05:45:00 6.7 C 78 % 3.14 C
1511 23-04-2020 05:50:00 6.7 C 79 % 3.32 C
1512 23-04-2020 05:55:00 6.6 C 79 % 3.23 C
1513 23-04-2020 06:00:00 6.6 C 79 % 3.23 C
1514 23-04-2020 06:05:00 6.5 C 79 % 3.13 C
1515 23-04-2020 06:10:00 6.5 C 79 % 3.13 C
1516 23-04-2020 06:15:00 6.4 C 79 % 3.03 C
1517 23-04-2020 06:20:00 6.3 C 79 % 2.93 C
1518 23-04-2020 06:25:00 6.3 C 80 % 3.11 C
1519 23-04-2020 06:30:00 6.2 C 80 % 3.01 C
1520 23-04-2020 06:35:00 6.2 C 80 % 3.01 C
1521 23-04-2020 06:40:00 6.2 C 80 % 3.01 C
1522 23-04-2020 06:45:00 6.2 C 80 % 3.01 C
1523 23-04-2020 06:50:00 6.1 C 81 % 3.09 C
1524 23-04-2020 06:55:00 6.1 C 81 % 3.09 C
1525 23-04-2020 07:00:00 6.1 C 81 % 3.09 C
Sensor: Nr:Datum:Temp:Feuchte:Taupunkt:
Aussen-T/F 1526 23-04-2020 07:05:00 6.1 C 82 % 3.26 C
1527 23-04-2020 07:10:00 6.1 C 82 % 3.26 C
1528 23-04-2020 07:15:00 6 C 82 % 3.17 C
1529 23-04-2020 07:20:00 5.9 C 83 % 3.24 C
1530 23-04-2020 07:25:00 5.9 C 84 % 3.41 C
1531 23-04-2020 07:30:00 5.9 C 84 % 3.41 C
1532 23-04-2020 07:35:00 5.9 C 85 % 3.58 C
1533 23-04-2020 07:40:00 5.9 C 85 % 3.58 C
1534 23-04-2020 07:45:00 5.9 C 85 % 3.58 C
1535 23-04-2020 07:50:00 5.9 C 85 % 3.58 C
1536 23-04-2020 07:55:00 5.9 C 86 % 3.74 C
1537 23-04-2020 08:00:00 5.9 C 86 % 3.74 C
1538 23-04-2020 08:05:00 5.9 C 86 % 3.74 C
1539 23-04-2020 08:10:00 5.9 C 86 % 3.74 C
1540 23-04-2020 08:15:00 6 C 87 % 4 C
1541 23-04-2020 08:20:00 6.1 C 87 % 4.1 C
1542 23-04-2020 08:25:00 6.2 C 87 % 4.2 C
1543 23-04-2020 08:30:00 6.2 C 87 % 4.2 C
1544 23-04-2020 08:35:00 6.3 C 87 % 4.3 C
1545 23-04-2020 08:40:00 6.4 C 87 % 4.4 C
1546 23-04-2020 08:45:00 6.6 C 87 % 4.6 C
1547 23-04-2020 08:50:00 6.8 C 87 % 4.79 C
1548 23-04-2020 08:55:00 6.9 C 87 % 4.89 C
1549 23-04-2020 09:00:00 7.1 C 86 % 4.92 C
1550 23-04-2020 09:05:00 7.3 C 86 % 5.12 C
Sensor: Nr:Datum:Temp:Feuchte:Taupunkt:
Aussen-T/F 1551 23-04-2020 09:10:00 7.5 C 86 % 5.31 C
1552 23-04-2020 09:15:00 7.8 C 85 % 5.44 C
1553 23-04-2020 09:20:00 8 C 84 % 5.47 C
1554 23-04-2020 09:25:00 8.2 C 83 % 5.49 C
1555 23-04-2020 09:30:00 8.5 C 83 % 5.78 C
1556 23-04-2020 09:35:00 8.7 C 82 % 5.8 C
1557 23-04-2020 09:40:00 8.9 C 82 % 6 C
1558 23-04-2020 09:45:00 9.2 C 80 % 5.94 C
1559 23-04-2020 09:50:00 9.4 C 80 % 6.13 C
1560 23-04-2020 09:55:00 9.6 C 79 % 6.14 C
1561 23-04-2020 10:00:00 9.9 C 78 % 6.25 C
1562 23-04-2020 10:05:00 10.2 C 78 % 6.54 C
1563 23-04-2020 10:10:00 10.4 C 77 % 6.55 C
1564 23-04-2020 10:15:00 10.6 C 76 % 6.55 C
1565 23-04-2020 10:20:00 11 C 72 % 6.15 C
1566 23-04-2020 10:25:00 11.4 C 71 % 6.34 C
1567 23-04-2020 10:30:00 11.8 C 70 % 6.51 C
1568 23-04-2020 10:35:00 12.1 C 70 % 6.8 C
1569 23-04-2020 10:40:00 12.4 C 70 % 7.09 C
1570 23-04-2020 10:45:00 12.7 C 64 % 6.07 C
1571 23-04-2020 10:50:00 13.1 C 64 % 6.45 C
1572 23-04-2020 10:55:00 13.8 C 58 % 5.69 C
1573 23-04-2020 11:00:00 14.9 C 54 % 5.69 C
1574 23-04-2020 11:05:00 15.3 C 59 % 7.34 C
1575 23-04-2020 11:10:00 15.6 C 53 % 6.06 C
Sensor: Nr:Datum:Temp:Feuchte:Taupunkt:
Aussen-T/F 1576 23-04-2020 11:15:00 15.8 C 51 % 5.69 C
1577 23-04-2020 11:20:00 16.2 C 49 % 5.49 C
1578 23-04-2020 11:25:00 16.4 C 47 % 5.07 C
1579 23-04-2020 11:30:00 16.8 C 46 % 5.13 C
1580 23-04-2020 11:35:00 16.9 C 52 % 6.99 C
1581 23-04-2020 11:40:00 16.9 C 48 % 5.83 C
1582 23-04-2020 11:45:00 17.1 C 47 % 5.71 C
1583 23-04-2020 11:50:00 17.2 C 47 % 5.8 C
1584 23-04-2020 11:55:00 17.3 C 45 % 5.27 C
1585 23-04-2020 12:00:00 17.5 C 46 % 5.76 C
1586 23-04-2020 12:05:00 17.7 C 44 % 5.31 C
1587 23-04-2020 12:10:00 17.7 C 44 % 5.31 C
1588 23-04-2020 12:15:00 17.9 C 45 % 5.81 C
1589 23-04-2020 12:20:00 18 C 44 % 5.58 C
1590 23-04-2020 12:25:00 18.1 C 44 % 5.67 C
1591 23-04-2020 12:30:00 18.2 C 43 % 5.43 C
1592 23-04-2020 12:35:00 18.3 C 43 % 5.52 C
1593 23-04-2020 12:40:00 18.3 C 43 % 5.52 C
1594 23-04-2020 12:45:00 18.4 C 43 % 5.61 C
1595 23-04-2020 12:50:00 18.4 C 42 % 5.27 C
1596 23-04-2020 12:55:00 18.5 C 41 % 5.01 C
1597 23-04-2020 13:00:00 18.7 C 38 % 4.11 C
1598 23-04-2020 13:05:00 18.9 C 35 % 3.12 C
1599 23-04-2020 13:10:00 19 C 36 % 3.61 C
1600 23-04-2020 13:15:00 19.2 C 35 % 3.38 C
Sensor: Nr:Datum:Temp:Feuchte:Taupunkt:
Aussen-T/F 1601 23-04-2020 13:20:00 19.3 C 35 % 3.47 C
1602 23-04-2020 13:25:00 19.3 C 35 % 3.47 C
1603 23-04-2020 13:30:00 19.4 C 36 % 3.96 C
1604 23-04-2020 13:35:00 19.6 C 35 % 3.74 C
1605 23-04-2020 13:40:00 19.7 C 34 % 3.41 C
1606 23-04-2020 13:45:00 19.8 C 35 % 3.91 C
1607 23-04-2020 13:50:00 20.1 C 33 % 3.34 C
1608 23-04-2020 13:55:00 20.1 C 35 % 4.18 C
1609 23-04-2020 14:00:00 20.1 C 33 % 3.34 C
1610 23-04-2020 14:05:00 20.2 C 33 % 3.43 C
1611 23-04-2020 14:10:00 20.3 C 33 % 3.52 C
1612 23-04-2020 14:15:00 20.3 C 35 % 4.35 C
1613 23-04-2020 14:20:00 20.4 C 33 % 3.6 C
1614 23-04-2020 14:25:00 20.6 C 33 % 3.78 C
1615 23-04-2020 14:30:00 20.8 C 33 % 3.95 C
1616 23-04-2020 14:35:00 20.9 C 33 % 4.04 C
1617 23-04-2020 14:40:00 21 C 32 % 3.69 C
1618 23-04-2020 14:45:00 21 C 33 % 4.13 C
1619 23-04-2020 14:50:00 21.1 C 33 % 4.22 C
1620 23-04-2020 14:55:00 21.3 C 32 % 3.95 C
1621 23-04-2020 15:00:00 21.4 C 33 % 4.48 C
1622 23-04-2020 15:05:00 21.6 C 32 % 4.21 C
1623 23-04-2020 15:10:00 21.7 C 31 % 3.85 C
1624 23-04-2020 15:15:00 21.6 C 30 % 3.3 C
1625 23-04-2020 15:20:00 21.7 C 32 % 4.3 C
Sensor: Nr:Datum:Temp:Feuchte:Taupunkt:
Aussen-T/F 1626 23-04-2020 15:25:00 21.8 C 31 % 3.94 C
1627 23-04-2020 15:30:00 22.1 C 31 % 4.2 C
1628 23-04-2020 15:35:00 22.2 C 30 % 3.82 C
1629 23-04-2020 15:40:00 22.3 C 29 % 3.42 C
1630 23-04-2020 15:45:00 22.4 C 31 % 4.46 C
1631 23-04-2020 15:50:00 22.6 C 30 % 4.16 C
1632 23-04-2020 15:55:00 22.6 C 29 % 3.68 C
1633 23-04-2020 16:00:00 22.6 C 30 % 4.16 C
1634 23-04-2020 16:05:00 22.7 C 30 % 4.25 C
1635 23-04-2020 16:10:00 22.7 C 30 % 4.25 C
1636 23-04-2020 16:15:00 22.7 C 30 % 4.25 C
1637 23-04-2020 16:20:00 22.8 C 30 % 4.34 C
1638 23-04-2020 16:25:00 23.2 C 29 % 4.2 C
1639 23-04-2020 16:30:00 23.5 C 28 % 3.96 C
1640 23-04-2020 16:35:00 23.4 C 28 % 3.87 C
1641 23-04-2020 16:40:00 23.3 C 28 % 3.78 C
1642 23-04-2020 16:45:00 23.4 C 30 % 4.85 C
1643 23-04-2020 16:50:00 23.9 C 29 % 4.8 C
1644 23-04-2020 16:55:00 24.3 C 28 % 4.64 C
1645 23-04-2020 17:00:00 24.2 C 28 % 4.55 C
1646 23-04-2020 17:05:00 24.4 C 28 % 4.73 C
1647 23-04-2020 17:10:00 24.2 C 28 % 4.55 C
1648 23-04-2020 17:15:00 24.1 C 28 % 4.47 C
1649 23-04-2020 17:20:00 24.2 C 28 % 4.55 C
1650 23-04-2020 17:25:00 24.5 C 26 % 3.76 C
Sensor: Nr:Datum:Temp:Feuchte:Taupunkt:
Aussen-T/F 1651 23-04-2020 17:30:00 24.7 C 27 % 4.46 C
1652 23-04-2020 17:35:00 24.7 C 26 % 3.93 C
1653 23-04-2020 17:40:00 24.3 C 27 % 4.12 C
1654 23-04-2020 17:45:00 24.2 C 28 % 4.55 C
1655 23-04-2020 17:50:00 24.2 C 28 % 4.55 C
1656 23-04-2020 17:55:00 24.6 C 29 % 5.4 C
1657 23-04-2020 18:00:00 24.8 C 25 % 3.45 C
1658 23-04-2020 18:05:00 25.1 C 27 % 4.8 C
1659 23-04-2020 18:10:00 25.3 C 25 % 3.88 C
1660 23-04-2020 18:15:00 25.2 C 29 % 5.91 C
1661 23-04-2020 18:20:00 25.5 C 27 % 5.14 C
1662 23-04-2020 18:25:00 25.7 C 25 % 4.21 C
1663 23-04-2020 18:30:00 25.8 C 25 % 4.3 C
1664 23-04-2020 18:35:00 25.7 C 25 % 4.21 C
1665 23-04-2020 18:40:00 25.6 C 27 % 5.23 C
1666 23-04-2020 18:45:00 25.4 C 27 % 5.06 C
1667 23-04-2020 18:50:00 25.3 C 27 % 4.97 C
1668 23-04-2020 18:55:00 24.9 C 27 % 4.63 C
1669 23-04-2020 19:00:00 24.7 C 30 % 5.97 C
1670 23-04-2020 19:05:00 24.7 C 29 % 5.49 C
1671 23-04-2020 19:10:00 24.8 C 26 % 4.01 C
1672 23-04-2020 19:15:00 24.8 C 28 % 5.07 C
1673 23-04-2020 19:20:00 24.7 C 31 % 6.45 C
1674 23-04-2020 19:25:00 24.4 C 33 % 7.1 C
1675 23-04-2020 19:30:00 24.2 C 36 % 8.2 C
Sensor: Nr:Datum:Temp:Feuchte:Taupunkt:
Aussen-T/F 1676 23-04-2020 19:35:00 22.9 C 58 % 14.2 C
1677 23-04-2020 19:40:00 20.8 C 61 % 13.01 C
1678 23-04-2020 19:45:00 19 C 67 % 12.74 C
1679 23-04-2020 19:50:00 17.6 C 67 % 11.4 C
1680 23-04-2020 19:55:00 16.4 C 66 % 10.04 C
1681 23-04-2020 20:00:00 15.7 C 66 % 9.37 C
1682 23-04-2020 20:05:00 15.3 C 66 % 8.99 C
1683 23-04-2020 20:10:00 15.2 C 66 % 8.9 C
1684 23-04-2020 20:15:00 14.9 C 65 % 8.39 C
1685 23-04-2020 20:20:00 14.8 C 66 % 8.52 C
1686 23-04-2020 20:25:00 14.7 C 67 % 8.64 C
1687 23-04-2020 20:30:00 14.6 C 68 % 8.77 C
1688 23-04-2020 20:35:00 14.4 C 69 % 8.79 C
1689 23-04-2020 20:40:00 14.3 C 70 % 8.91 C
1690 23-04-2020 20:45:00 14.1 C 69 % 8.5 C
1691 23-04-2020 20:50:00 13.9 C 66 % 7.66 C
1692 23-04-2020 20:55:00 13.8 C 66 % 7.57 C
1693 23-04-2020 21:00:00 13.6 C 65 % 7.15 C
1694 23-04-2020 21:05:00 13.4 C 64 % 6.74 C
1695 23-04-2020 21:10:00 13.4 C 65 % 6.96 C
1696 23-04-2020 21:15:00 13.3 C 66 % 7.09 C
1697 23-04-2020 21:20:00 13.2 C 65 % 6.77 C
1698 23-04-2020 21:25:00 13.1 C 65 % 6.68 C
1699 23-04-2020 21:30:00 12.9 C 65 % 6.49 C
1700 23-04-2020 21:35:00 12.8 C 64 % 6.17 C
Sensor: Nr:Datum:Temp:Feuchte:Taupunkt:
Aussen-T/F 1701 23-04-2020 21:40:00 12.7 C 65 % 6.3 C
1702 23-04-2020 21:45:00 12.6 C 66 % 6.42 C
1703 23-04-2020 21:50:00 12.4 C 66 % 6.23 C
1704 23-04-2020 21:55:00 12.3 C 65 % 5.92 C
1705 23-04-2020 22:00:00 12.2 C 67 % 6.26 C
1706 23-04-2020 22:05:00 12.1 C 67 % 6.17 C
1707 23-04-2020 22:10:00 11.9 C 68 % 6.19 C
1708 23-04-2020 22:15:00 11.7 C 67 % 5.78 C
1709 23-04-2020 22:20:00 11.7 C 68 % 6 C
1710 23-04-2020 22:25:00 11.6 C 67 % 5.69 C
1711 23-04-2020 22:30:00 11.4 C 68 % 5.71 C
1712 23-04-2020 22:35:00 11.3 C 68 % 5.62 C
1713 23-04-2020 22:40:00 11.2 C 68 % 5.52 C
1714 23-04-2020 22:45:00 11.2 C 69 % 5.73 C
1715 23-04-2020 22:50:00 11.1 C 68 % 5.43 C
1716 23-04-2020 22:55:00 10.9 C 69 % 5.44 C
1717 23-04-2020 23:00:00 10.8 C 70 % 5.56 C
1718 23-04-2020 23:05:00 10.7 C 70 % 5.46 C
1719 23-04-2020 23:10:00 10.6 C 70 % 5.36 C
1720 23-04-2020 23:15:00 10.4 C 71 % 5.38 C
1721 23-04-2020 23:20:00 10.3 C 71 % 5.28 C
1722 23-04-2020 23:25:00 10.1 C 71 % 5.09 C
1723 23-04-2020 23:30:00 10.1 C 72 % 5.29 C
1724 23-04-2020 23:35:00 10 C 72 % 5.19 C
1725 23-04-2020 23:40:00 9.8 C 72 % 5 C
Sensor: Nr:Datum:Temp:Feuchte:Taupunkt:
Aussen-T/F 1726 23-04-2020 23:45:00 9.7 C 72 % 4.9 C
1727 23-04-2020 23:50:00 9.7 C 72 % 4.9 C
1728 23-04-2020 23:55:00 9.7 C 72 % 4.9 C
1729 24-04-2020 00:00:00 9.6 C 72 % 4.81 C
1730 24-04-2020 00:05:00 9.6 C 72 % 4.81 C
1731 24-04-2020 00:10:00 9.6 C 73 % 5.01 C
1732 24-04-2020 00:15:00 9.6 C 74 % 5.2 C
1733 24-04-2020 00:20:00 9.6 C 73 % 5.01 C
1734 24-04-2020 00:25:00 9.5 C 73 % 4.91 C
1735 24-04-2020 00:30:00 9.4 C 74 % 5.01 C
1736 24-04-2020 00:35:00 9.3 C 74 % 4.91 C
1737 24-04-2020 00:40:00 9.1 C 74 % 4.72 C
1738 24-04-2020 00:45:00 9 C 74 % 4.62 C
1739 24-04-2020 00:50:00 8.9 C 75 % 4.72 C
1740 24-04-2020 00:55:00 8.8 C 75 % 4.62 C
1741 24-04-2020 01:00:00 8.8 C 76 % 4.81 C
1742 24-04-2020 01:05:00 8.7 C 76 % 4.71 C
1743 24-04-2020 01:10:00 8.7 C 77 % 4.9 C
1744 24-04-2020 01:15:00 8.6 C 77 % 4.8 C
1745 24-04-2020 01:20:00 8.6 C 77 % 4.8 C
1746 24-04-2020 01:25:00 8.5 C 76 % 4.52 C
1747 24-04-2020 01:30:00 8.4 C 76 % 4.42 C
1748 24-04-2020 01:35:00 8.4 C 77 % 4.61 C
1749 24-04-2020 01:40:00 8.4 C 78 % 4.79 C
1750 24-04-2020 01:45:00 8.4 C 78 % 4.79 C
Sensor: Nr:Datum:Temp:Feuchte:Taupunkt:
Aussen-T/F 1751 24-04-2020 01:50:00 8.3 C 78 % 4.7 C
1752 24-04-2020 01:55:00 8.2 C 78 % 4.6 C
1753 24-04-2020 02:00:00 8.2 C 78 % 4.6 C
1754 24-04-2020 02:05:00 8.1 C 79 % 4.68 C
1755 24-04-2020 02:10:00 7.9 C 78 % 4.31 C
1756 24-04-2020 02:15:00 7.8 C 78 % 4.21 C
1757 24-04-2020 02:20:00 7.7 C 79 % 4.3 C
1758 24-04-2020 02:25:00 7.7 C 80 % 4.47 C
1759 24-04-2020 02:30:00 7.7 C 80 % 4.47 C
1760 24-04-2020 02:35:00 7.7 C 81 % 4.65 C
1761 24-04-2020 02:40:00 7.6 C 80 % 4.38 C
1762 24-04-2020 02:45:00 7.4 C 80 % 4.18 C
1763 24-04-2020 02:50:00 7.4 C 81 % 4.36 C
1764 24-04-2020 02:55:00 7.3 C 82 % 4.44 C
1765 24-04-2020 03:00:00 7.3 C 82 % 4.44 C
1766 24-04-2020 03:05:00 7.3 C 82 % 4.44 C
1767 24-04-2020 03:10:00 7.3 C 82 % 4.44 C
1768 24-04-2020 03:15:00 7.2 C 82 % 4.34 C
1769 24-04-2020 03:20:00 7.1 C 82 % 4.24 C
1770 24-04-2020 03:25:00 6.9 C 83 % 4.22 C
1771 24-04-2020 03:30:00 6.9 C 83 % 4.22 C
1772 24-04-2020 03:35:00 6.8 C 83 % 4.12 C
1773 24-04-2020 03:40:00 6.8 C 84 % 4.29 C
1774 24-04-2020 03:45:00 6.7 C 84 % 4.19 C
1775 24-04-2020 03:50:00 6.7 C 84 % 4.19 C
Sensor: Nr:Datum:Temp:Feuchte:Taupunkt:
Aussen-T/F 1776 24-04-2020 03:55:00 6.7 C 84 % 4.19 C
1777 24-04-2020 04:00:00 6.7 C 84 % 4.19 C
1778 24-04-2020 04:05:00 6.6 C 84 % 4.1 C
1779 24-04-2020 04:10:00 6.5 C 85 % 4.17 C
1780 24-04-2020 04:15:00 6.5 C 85 % 4.17 C
1781 24-04-2020 04:20:00 6.4 C 85 % 4.07 C
1782 24-04-2020 04:25:00 6.3 C 85 % 3.97 C
1783 24-04-2020 04:30:00 6.3 C 85 % 3.97 C
1784 24-04-2020 04:35:00 6.3 C 86 % 4.14 C
1785 24-04-2020 04:40:00 6.5 C 86 % 4.33 C
1786 24-04-2020 04:45:00 6.6 C 86 % 4.43 C
1787 24-04-2020 04:50:00 6.7 C 86 % 4.53 C
1788 24-04-2020 04:55:00 6.7 C 85 % 4.36 C
1789 24-04-2020 05:00:00 6.7 C 85 % 4.36 C
1790 24-04-2020 05:05:00 6.6 C 85 % 4.26 C
1791 24-04-2020 05:10:00 6.5 C 85 % 4.17 C
1792 24-04-2020 05:15:00 6.4 C 85 % 4.07 C
1793 24-04-2020 05:20:00 6.3 C 86 % 4.14 C
1794 24-04-2020 05:25:00 6.3 C 86 % 4.14 C
1795 24-04-2020 05:30:00 6.3 C 87 % 4.3 C
1796 24-04-2020 05:35:00 6.3 C 87 % 4.3 C
1797 24-04-2020 05:40:00 6.4 C 87 % 4.4 C
1798 24-04-2020 05:45:00 6.4 C 87 % 4.4 C
1799 24-04-2020 05:50:00 6.4 C 87 % 4.4 C
1800 24-04-2020 05:55:00 6.4 C 87 % 4.4 C
Sensor: Nr:Datum:Temp:Feuchte:Taupunkt:
Aussen-T/F 1801 24-04-2020 06:00:00 6.4 C 87 % 4.4 C
1802 24-04-2020 06:05:00 6.4 C 87 % 4.4 C
1803 24-04-2020 06:10:00 6.3 C 87 % 4.3 C
1804 24-04-2020 06:15:00 6.3 C 87 % 4.3 C
1805 24-04-2020 06:20:00 6.3 C 87 % 4.3 C
1806 24-04-2020 06:25:00 6.4 C 87 % 4.4 C
1807 24-04-2020 06:30:00 6.4 C 87 % 4.4 C
1808 24-04-2020 06:35:00 6.4 C 87 % 4.4 C
1809 24-04-2020 06:40:00 6.3 C 87 % 4.3 C
1810 24-04-2020 06:45:00 6.4 C 87 % 4.4 C
1811 24-04-2020 06:50:00 6.4 C 87 % 4.4 C
1812 24-04-2020 06:55:00 6.4 C 87 % 4.4 C
1813 24-04-2020 07:00:00 6.4 C 87 % 4.4 C
1814 24-04-2020 07:05:00 6.4 C 87 % 4.4 C
1815 24-04-2020 07:10:00 6.5 C 88 % 4.66 C
1816 24-04-2020 07:15:00 6.5 C 88 % 4.66 C
1817 24-04-2020 07:20:00 6.6 C 88 % 4.76 C
1818 24-04-2020 07:25:00 6.6 C 88 % 4.76 C
1819 24-04-2020 07:30:00 6.6 C 88 % 4.76 C
1820 24-04-2020 07:35:00 6.6 C 88 % 4.76 C
1821 24-04-2020 07:40:00 6.6 C 88 % 4.76 C
1822 24-04-2020 07:45:00 6.7 C 88 % 4.86 C
1823 24-04-2020 07:50:00 6.8 C 88 % 4.96 C
1824 24-04-2020 07:55:00 6.8 C 88 % 4.96 C
1825 24-04-2020 08:00:00 6.9 C 88 % 5.05 C
Sensor: Nr:Datum:Temp:Feuchte:Taupunkt:
Aussen-T/F 1826 24-04-2020 08:05:00 6.9 C 88 % 5.05 C
1827 24-04-2020 08:10:00 7.1 C 88 % 5.25 C
1828 24-04-2020 08:15:00 7.2 C 88 % 5.35 C
1829 24-04-2020 08:20:00 7.3 C 87 % 5.28 C
1830 24-04-2020 08:25:00 7.6 C 87 % 5.58 C
1831 24-04-2020 08:30:00 7.8 C 86 % 5.61 C
1832 24-04-2020 08:35:00 8.1 C 85 % 5.73 C
1833 24-04-2020 08:40:00 8.3 C 85 % 5.93 C
1834 24-04-2020 08:45:00 8.7 C 85 % 6.32 C
1835 24-04-2020 08:50:00 8.9 C 83 % 6.17 C
1836 24-04-2020 08:55:00 9.2 C 83 % 6.47 C
1837 24-04-2020 09:00:00 9.4 C 82 % 6.49 C
1838 24-04-2020 09:05:00 9.6 C 80 % 6.32 C
1839 24-04-2020 09:10:00 9.9 C 79 % 6.43 C
1840 24-04-2020 09:15:00 10.1 C 78 % 6.44 C
1841 24-04-2020 09:20:00 10.3 C 79 % 6.82 C
1842 24-04-2020 09:25:00 10.6 C 78 % 6.93 C
1843 24-04-2020 09:30:00 10.8 C 77 % 6.94 C
1844 24-04-2020 09:35:00 11.1 C 77 % 7.23 C
1845 24-04-2020 09:40:00 11.3 C 76 % 7.23 C
1846 24-04-2020 09:45:00 11.4 C 75 % 7.13 C
1847 24-04-2020 09:50:00 11.7 C 75 % 7.42 C
1848 24-04-2020 09:55:00 11.8 C 75 % 7.52 C
1849 24-04-2020 10:00:00 12.1 C 74 % 7.61 C
1850 24-04-2020 10:05:00 12.2 C 73 % 7.51 C
Sensor: Nr:Datum:Temp:Feuchte:Taupunkt:
Aussen-T/F 1851 24-04-2020 10:10:00 12.3 C 73 % 7.61 C
1852 24-04-2020 10:15:00 12.3 C 72 % 7.4 C
1853 24-04-2020 10:20:00 12.5 C 72 % 7.6 C
1854 24-04-2020 10:25:00 12.7 C 72 % 7.79 C
1855 24-04-2020 10:30:00 12.9 C 72 % 7.98 C
1856 24-04-2020 10:35:00 13.2 C 71 % 8.06 C
1857 24-04-2020 10:40:00 13.6 C 71 % 8.45 C
1858 24-04-2020 10:45:00 13.8 C 69 % 8.22 C
1859 24-04-2020 10:50:00 13.9 C 70 % 8.53 C
1860 24-04-2020 10:55:00 14.2 C 68 % 8.39 C
1861 24-04-2020 11:00:00 14.3 C 67 % 8.26 C
1862 24-04-2020 11:05:00 14.6 C 67 % 8.55 C
1863 24-04-2020 11:10:00 14.7 C 66 % 8.42 C
1864 24-04-2020 11:15:00 14.8 C 67 % 8.74 C
1865 24-04-2020 11:20:00 15 C 65 % 8.48 C
1866 24-04-2020 11:25:00 15.2 C 65 % 8.67 C
1867 24-04-2020 11:30:00 15.3 C 64 % 8.54 C
1868 24-04-2020 11:35:00 15.4 C 63 % 8.4 C
1869 24-04-2020 11:40:00 15.6 C 64 % 8.82 C
1870 24-04-2020 11:45:00 15.7 C 63 % 8.68 C
1871 24-04-2020 11:50:00 15.9 C 62 % 8.64 C
1872 24-04-2020 11:55:00 16.1 C 62 % 8.82 C
1873 24-04-2020 12:00:00 16.2 C 62 % 8.92 C
1874 24-04-2020 12:05:00 16.4 C 63 % 9.35 C
1875 24-04-2020 12:10:00 16.6 C 62 % 9.3 C
Sensor: Nr:Datum:Temp:Feuchte:Taupunkt:
Aussen-T/F 1876 24-04-2020 12:15:00 16.9 C 60 % 9.09 C
1877 24-04-2020 12:20:00 17.3 C 63 % 10.2 C
1878 24-04-2020 12:25:00 17.7 C 58 % 9.34 C
1879 24-04-2020 12:30:00 17.9 C 55 % 8.74 C
1880 24-04-2020 12:35:00 18.1 C 56 % 9.19 C
1881 24-04-2020 12:40:00 18.2 C 55 % 9.02 C
1882 24-04-2020 12:45:00 18.3 C 51 % 8 C
1883 24-04-2020 12:50:00 18.6 C 52 % 8.56 C
1884 24-04-2020 12:55:00 18.8 C 49 % 7.87 C
1885 24-04-2020 13:00:00 19.2 C 47 % 7.63 C
1886 24-04-2020 13:05:00 19.3 C 48 % 8.03 C
1887 24-04-2020 13:10:00 19.4 C 46 % 7.49 C
1888 24-04-2020 13:15:00 19.7 C 44 % 7.12 C
1889 24-04-2020 13:20:00 20 C 42 % 6.71 C
1890 24-04-2020 13:25:00 20.1 C 39 % 5.73 C
1891 24-04-2020 13:30:00 20.2 C 38 % 5.44 C
1892 24-04-2020 13:35:00 20.2 C 40 % 6.18 C
1893 24-04-2020 13:40:00 20.3 C 39 % 5.9 C
1894 24-04-2020 13:45:00 20.5 C 38 % 5.71 C
1895 24-04-2020 13:50:00 20.7 C 38 % 5.89 C
1896 24-04-2020 13:55:00 20.7 C 39 % 6.26 C
1897 24-04-2020 14:00:00 20.8 C 40 % 6.72 C
1898 24-04-2020 14:05:00 21.1 C 41 % 7.35 C
1899 24-04-2020 14:10:00 21.1 C 40 % 6.99 C
1900 24-04-2020 14:15:00 21.1 C 40 % 6.99 C
Sensor: Nr:Datum:Temp:Feuchte:Taupunkt:
Aussen-T/F 1901 24-04-2020 14:20:00 21.2 C 41 % 7.44 C
1902 24-04-2020 14:25:00 21.4 C 41 % 7.62 C
1903 24-04-2020 14:30:00 21.4 C 41 % 7.62 C
1904 24-04-2020 14:35:00 21.4 C 42 % 7.97 C
1905 24-04-2020 14:40:00 21.5 C 42 % 8.06 C
1906 24-04-2020 14:45:00 21.6 C 42 % 8.15 C
1907 24-04-2020 14:50:00 21.6 C 42 % 8.15 C
1908 24-04-2020 14:55:00 21.7 C 41 % 7.88 C
1909 24-04-2020 15:00:00 21.7 C 42 % 8.24 C
1910 24-04-2020 15:05:00 21.8 C 40 % 7.61 C
1911 24-04-2020 15:10:00 21.9 C 41 % 8.06 C
1912 24-04-2020 15:15:00 21.9 C 39 % 7.33 C
1913 24-04-2020 15:20:00 22 C 39 % 7.42 C
1914 24-04-2020 15:25:00 21.9 C 38 % 6.95 C
1915 24-04-2020 15:30:00 22 C 37 % 6.65 C
1916 24-04-2020 15:35:00 22.1 C 36 % 6.34 C
1917 24-04-2020 15:40:00 22.2 C 36 % 6.43 C
1918 24-04-2020 15:45:00 22.3 C 36 % 6.52 C
1919 24-04-2020 15:50:00 22.4 C 35 % 6.2 C
1920 24-04-2020 15:55:00 22.6 C 34 % 5.96 C
1921 24-04-2020 16:00:00 22.6 C 34 % 5.96 C
1922 24-04-2020 16:05:00 22.5 C 35 % 6.29 C
1923 24-04-2020 16:10:00 22.6 C 34 % 5.96 C
1924 24-04-2020 16:15:00 22.7 C 33 % 5.61 C
1925 24-04-2020 16:20:00 22.8 C 33 % 5.7 C
Sensor: Nr:Datum:Temp:Feuchte:Taupunkt:
Aussen-T/F 1926 24-04-2020 16:25:00 22.8 C 31 % 4.8 C
1927 24-04-2020 16:30:00 22.9 C 30 % 4.42 C
1928 24-04-2020 16:35:00 23.1 C 32 % 5.52 C
1929 24-04-2020 16:40:00 23.2 C 30 % 4.68 C
1930 24-04-2020 16:45:00 23.1 C 29 % 4.11 C
1931 24-04-2020 16:50:00 22.9 C 31 % 4.89 C
1932 24-04-2020 16:55:00 22.9 C 30 % 4.42 C
1933 24-04-2020 17:00:00 22.8 C 31 % 4.8 C
1934 24-04-2020 17:05:00 22.6 C 31 % 4.63 C
1935 24-04-2020 17:10:00 22.6 C 32 % 5.08 C
1936 24-04-2020 17:15:00 22.6 C 30 % 4.16 C
1937 24-04-2020 17:20:00 22.6 C 29 % 3.68 C
1938 24-04-2020 17:25:00 22.7 C 29 % 3.77 C
1939 24-04-2020 17:30:00 22.8 C 29 % 3.85 C
1940 24-04-2020 17:35:00 22.7 C 28 % 3.27 C
1941 24-04-2020 17:40:00 22.4 C 29 % 3.51 C
1942 24-04-2020 17:45:00 22.2 C 30 % 3.82 C
1943 24-04-2020 17:50:00 22.2 C 30 % 3.82 C
1944 24-04-2020 17:55:00 22.4 C 30 % 3.99 C
1945 24-04-2020 18:00:00 22.4 C 31 % 4.46 C
1946 24-04-2020 18:05:00 22.1 C 31 % 4.2 C
1947 24-04-2020 18:10:00 21.9 C 31 % 4.02 C
1948 24-04-2020 18:15:00 21.7 C 33 % 4.74 C
1949 24-04-2020 18:20:00 21.4 C 34 % 4.91 C
1950 24-04-2020 18:25:00 21.4 C 35 % 5.32 C
Sensor: Nr:Datum:Temp:Feuchte:Taupunkt:
Aussen-T/F 1951 24-04-2020 18:30:00 21.6 C 37 % 6.3 C
1952 24-04-2020 18:35:00 21.6 C 37 % 6.3 C
1953 24-04-2020 18:40:00 21.4 C 38 % 6.51 C
1954 24-04-2020 18:45:00 21.3 C 38 % 6.42 C
1955 24-04-2020 18:50:00 21.2 C 39 % 6.71 C
1956 24-04-2020 18:55:00 21.1 C 39 % 6.62 C
1957 24-04-2020 19:00:00 21.1 C 39 % 6.62 C
1958 24-04-2020 19:05:00 20.9 C 39 % 6.44 C
1959 24-04-2020 19:10:00 20.8 C 39 % 6.35 C
1960 24-04-2020 19:15:00 20.7 C 40 % 6.63 C
1961 24-04-2020 19:20:00 20.5 C 40 % 6.45 C
1962 24-04-2020 19:25:00 20.4 C 41 % 6.72 C
1963 24-04-2020 19:30:00 20.3 C 41 % 6.63 C
1964 24-04-2020 19:35:00 20.1 C 42 % 6.8 C
1965 24-04-2020 19:40:00 19.9 C 43 % 6.96 C
1966 24-04-2020 19:45:00 19.8 C 43 % 6.87 C
1967 24-04-2020 19:50:00 19.7 C 43 % 6.78 C
1968 24-04-2020 19:55:00 19.6 C 44 % 7.03 C
1969 24-04-2020 20:00:00 19.4 C 45 % 7.17 C
1970 24-04-2020 20:05:00 19.2 C 45 % 6.99 C
1971 24-04-2020 20:10:00 19.1 C 44 % 6.57 C
1972 24-04-2020 20:15:00 18.9 C 46 % 7.04 C
1973 24-04-2020 20:20:00 18.7 C 47 % 7.17 C
1974 24-04-2020 20:25:00 18.3 C 47 % 6.8 C
1975 24-04-2020 20:30:00 18.2 C 48 % 7.02 C
Sensor: Nr:Datum:Temp:Feuchte:Taupunkt:
Aussen-T/F 1976 24-04-2020 20:35:00 17.8 C 50 % 7.25 C
1977 24-04-2020 20:40:00 17.5 C 50 % 6.97 C
1978 24-04-2020 20:45:00 17.2 C 50 % 6.7 C
1979 24-04-2020 20:50:00 16.9 C 51 % 6.71 C
1980 24-04-2020 20:55:00 16.7 C 52 % 6.81 C
1981 24-04-2020 21:00:00 16.4 C 52 % 6.53 C
1982 24-04-2020 21:05:00 16.3 C 53 % 6.71 C
1983 24-04-2020 21:10:00 16.2 C 53 % 6.62 C
1984 24-04-2020 21:15:00 16 C 52 % 6.16 C
1985 24-04-2020 21:20:00 15.8 C 53 % 6.25 C
1986 24-04-2020 21:25:00 15.7 C 54 % 6.43 C
1987 24-04-2020 21:30:00 15.6 C 53 % 6.06 C
1988 24-04-2020 21:35:00 15.6 C 54 % 6.34 C
1989 24-04-2020 21:40:00 15.7 C 54 % 6.43 C
1990 24-04-2020 21:45:00 15.6 C 53 % 6.06 C
1991 24-04-2020 21:50:00 15.5 C 55 % 6.51 C
1992 24-04-2020 21:55:00 15.3 C 55 % 6.32 C
1993 24-04-2020 22:00:00 15.2 C 55 % 6.23 C
1994 24-04-2020 22:05:00 15.1 C 55 % 6.14 C
1995 24-04-2020 22:10:00 15 C 56 % 6.3 C
1996 24-04-2020 22:15:00 14.8 C 56 % 6.12 C
1997 24-04-2020 22:20:00 14.7 C 57 % 6.28 C
1998 24-04-2020 22:25:00 14.6 C 54 % 5.41 C
1999 24-04-2020 22:30:00 14.6 C 56 % 5.93 C
2000 24-04-2020 22:35:00 14.6 C 55 % 5.67 C
Sensor: Nr:Datum:Temp:Feuchte:Taupunkt:
Aussen-T/F 2001 24-04-2020 22:40:00 14.6 C 56 % 5.93 C
2002 24-04-2020 22:45:00 14.4 C 56 % 5.74 C
2003 24-04-2020 22:50:00 14.2 C 56 % 5.56 C
2004 24-04-2020 22:55:00 13.9 C 57 % 5.53 C
2005 24-04-2020 23:00:00 13.7 C 56 % 5.09 C
2006 24-04-2020 23:05:00 13.5 C 57 % 5.16 C
2007 24-04-2020 23:10:00 13.3 C 53 % 3.93 C
2008 24-04-2020 23:15:00 13.3 C 56 % 4.72 C
2009 24-04-2020 23:20:00 13.2 C 52 % 3.57 C
2010 24-04-2020 23:25:00 13.1 C 53 % 3.75 C
2011 24-04-2020 23:30:00 12.9 C 52 % 3.29 C
2012 24-04-2020 23:35:00 12.8 C 50 % 2.65 C
2013 24-04-2020 23:40:00 12.9 C 51 % 3.02 C
2014 24-04-2020 23:45:00 12.9 C 51 % 3.02 C
2015 24-04-2020 23:50:00 12.9 C 53 % 3.56 C
2016 24-04-2020 23:55:00 12.8 C 50 % 2.65 C

Legende:
   Min
   Max


Maximal/Minimal-Werte vom 18.04.2020 - 24.04.2020

Sensor Min Max Avg
Temp
(Aussen-T/F)
5.9 °C
23-04-2020  07:20:00
25.8 °C
23-04-2020  18:30:00
13.74 °C
Feuchte
(Aussen-T/F)
25 %
23-04-2020  18:00:00
96 %
19-04-2020  04:25:00
60.8 %
Taupunkt
(Aussen-T/F)
0.02 C
21-04-2020  00:15:00
15.17 C
18-04-2020  17:40:00
5.38 C

Die Daten stammen von einer Davis Vantage Pro 2 Wetter-Station und werden unter Linux mit der Software wview2wettercgi und aufbereitet. Alle Angaben erfolgen ohne Gewähr für ihre Vollständigkeit oder Richtigkeit.
Kontakt: Rainer Krienke krienke@uni-koblenz.de . Meine Webseiten an der Uni Koblenz oder privat.
Version: $Revision: 0.78 $